Time,TemperatureF,DewpointF,PressureIn,WindDirection,WindDirectionDegrees,WindSpeedMPH,WindSpeedGustMPH,Humidity,HourlyPrecipIn,Conditions,Clouds,dailyrainin,SoftwareType,DateUTC
2013-07-15 00:03:00,80.2,46.9,29.65,NNW,338,8.1,8.1,31,0.00,CLR,,0.00,WeatherDisplay:10.37,2013-07-14 21:03:00,
2013-07-15 00:04:00,80.2,46.9,29.65,West,270,4.6,4.6,31,0.00,CLR,,0.00,WeatherDisplay:10.37,2013-07-14 21:04:00,
2013-07-15 00:08:00,80.1,48.4,29.65,WNW,292,1.4,0.0,33,0.00,CLR,,0.00,WeatherDisplay:10.37,2013-07-14 21:08:00,
2013-07-15 00:09:00,80.1,49.2,29.65,WSW,248,3.3,3.3,34,0.00,CLR,,0.00,WeatherDisplay:10.37,2013-07-14 21:09:00,
2013-07-15 00:10:00,80.1,49.2,29.65,WSW,248,3.5,3.5,34,0.00,CLR,,0.00,WeatherDisplay:10.37,2013-07-14 21:10:00,
2013-07-15 00:13:00,79.9,49.8,29.65,WNW,292,3.5,3.5,35,0.00,CLR,,0.00,WeatherDisplay:10.37,2013-07-14 21:13:00,
2013-07-15 00:14:00,79.9,49.8,29.65,WNW,292,1.2,1.6,35,0.00,CLR,,0.00,WeatherDisplay:10.37,2013-07-14 21:14:00,
2013-07-15 00:15:00,79.7,50.4,29.65,WSW,248,1.4,1.4,36,0.00,CLR,,0.00,WeatherDisplay:10.37,2013-07-14 21:15:00,
2013-07-15 00:19:00,79.5,50.2,29.65,WSW,248,2.3,2.3,36,0.00,CLR,,0.00,WeatherDisplay:10.37,2013-07-14 21:19:00,
2013-07-15 00:20:00,79.5,50.2,29.65,WSW,248,2.3,2.3,36,0.00,CLR,,0.00,WeatherDisplay:10.37,2013-07-14 21:20:00,
2013-07-15 00:24:00,79.2,52.1,29.65,WSW,248,0.0,0.0,39,0.00,CLR,,0.00,WeatherDisplay:10.37,2013-07-14 21:24:00,
2013-07-15 00:25:00,79.2,52.1,29.65,WSW,248,0.0,0.0,39,0.00,CLR,,0.00,WeatherDisplay:10.37,2013-07-14 21:25:00,
2013-07-15 00:29:00,79.0,53.3,29.65,South,180,3.5,3.5,41,0.00,CLR,,0.00,WeatherDisplay:10.37,2013-07-14 21:29:00,
2013-07-15 00:30:00,79.0,53.3,29.65,South,180,2.3,2.3,41,0.00,CLR,,0.00,WeatherDisplay:10.37,2013-07-14 21:30:00,
2013-07-15 00:31:00,79.0,53.3,29.65,South,180,2.3,0.0,41,0.00,CLR,,0.00,WeatherDisplay:10.37,2013-07-14 21:31:00,
2013-07-15 00:34:00,78.6,54.2,29.65,SSW,202,3.5,3.5,43,0.00,CLR,,0.00,WeatherDisplay:10.37,2013-07-14 21:34:00,
2013-07-15 00:35:00,78.6,54.2,29.65,South,190,2.0,4.0,43,0.00,CLR,,0.00,WeatherDisplay:10.37,2013-07-14 21:35:00,
2013-07-15 00:36:00,78.4,54.1,29.65,SSW,202,1.2,0.0,43,0.00,CLR,,0.00,WeatherDisplay:10.37,2013-07-14 21:36:00,
2013-07-15 00:40:00,78.3,53.9,29.65,South,181,0.0,2.0,43,0.00,CLR,,0.00,WeatherDisplay:10.37,2013-07-14 21:40:00,
2013-07-15 00:41:00,78.3,54.6,29.65,South,180,2.3,2.3,44,0.00,CLR,,0.00,WeatherDisplay:10.37,2013-07-14 21:41:00,
2013-07-15 00:45:00,78.1,54.4,29.65,South,180,0.0,0.0,44,0.00,CLR,,0.00,WeatherDisplay:10.37,2013-07-14 21:45:00,
2013-07-15 00:46:00,77.9,53.6,29.65,South,180,0.0,0.0,43,0.00,CLR,,0.00,WeatherDisplay:10.37,2013-07-14 21:46:00,
2013-07-15 00:50:00,77.7,53.4,29.65,South,180,0.0,0.0,43,0.00,CLR,,0.00,WeatherDisplay:10.37,2013-07-14 21:50:00,
2013-07-15 00:51:00,77.7,53.4,29.65,South,180,0.0,0.0,43,0.00,CLR,,0.00,WeatherDisplay:10.37,2013-07-14 21:51:00,
2013-07-15 00:55:00,77.5,53.3,29.68,South,180,0.0,0.0,43,0.00,CLR,,0.00,WeatherDisplay:10.37,2013-07-14 21:55:00,
2013-07-15 00:56:00,77.5,53.3,29.68,South,180,0.0,0.0,43,0.00,CLR,,0.00,WeatherDisplay:10.37,2013-07-14 21:56:00,
2013-07-15 01:01:00,77.4,53.1,29.68,South,180,0.0,0.0,43,0.00,CLR,,0.00,WeatherDisplay:10.37,2013-07-14 22:01:00,
2013-07-15 01:02:00,77.4,53.1,29.68,South,180,0.0,0.0,43,0.00,CLR,,0.00,WeatherDisplay:10.37,2013-07-14 22:02:00,
2013-07-15 01:06:00,77.4,53.1,29.68,South,180,0.0,0.0,43,0.00,CLR,,0.00,WeatherDisplay:10.37,2013-07-14 22:06:00,
2013-07-15 01:07:00,77.4,53.1,29.68,South,180,0.0,0.0,43,0.00,CLR,,0.00,WeatherDisplay:10.37,2013-07-14 22:07:00,
2013-07-15 01:11:00,77.2,52.9,29.65,South,180,0.0,0.0,43,0.00,CLR,,0.00,WeatherDisplay:10.37,2013-07-14 22:11:00,
2013-07-15 01:12:00,77.2,52.9,29.65,South,180,0.0,0.0,43,0.00,CLR,,0.00,WeatherDisplay:10.37,2013-07-14 22:12:00,
2013-07-15 01:16:00,77.0,52.8,29.65,South,180,0.0,0.0,43,0.00,CLR,,0.00,WeatherDisplay:10.37,2013-07-14 22:16:00,
2013-07-15 01:17:00,77.0,52.8,29.65,South,180,0.0,0.0,43,0.00,CLR,,0.00,WeatherDisplay:10.37,2013-07-14 22:17:00,
2013-07-15 01:21:00,77.0,52.1,29.65,NE,45,3.1,3.1,42,0.00,CLR,,0.00,WeatherDisplay:10.37,2013-07-14 22:21:00,
2013-07-15 01:22:00,77.0,52.1,29.65,ENE,68,3.5,3.5,42,0.00,CLR,,0.00,WeatherDisplay:10.37,2013-07-14 22:22:00,
2013-07-15 01:26:00,77.0,52.1,29.65,ENE,68,0.0,0.0,42,0.00,CLR,,0.00,WeatherDisplay:10.37,2013-07-14 22:26:00,
2013-07-15 01:27:00,77.0,52.1,29.65,ENE,68,0.0,0.0,42,0.00,CLR,,0.00,WeatherDisplay:10.37,2013-07-14 22:27:00,
2013-07-15 01:31:00,77.2,51.7,29.65,NE,45,2.3,0.0,41,0.00,CLR,,0.00,WeatherDisplay:10.37,2013-07-14 22:31:00,
2013-07-15 01:32:00,77.4,51.8,29.65,NNE,22,2.3,2.3,41,0.00,CLR,,0.00,WeatherDisplay:10.37,2013-07-14 22:32:00,
2013-07-15 01:33:00,77.4,51.8,29.65,NNE,22,2.3,2.3,41,0.00,CLR,,0.00,WeatherDisplay:10.37,2013-07-14 22:33:00,
2013-07-15 01:36:00,77.2,50.3,29.65,NE,45,2.3,2.3,39,0.00,CLR,,0.00,WeatherDisplay:10.37,2013-07-14 22:36:00,
2013-07-15 01:38:00,77.2,49.6,29.65,ENE,68,1.2,2.0,38,0.00,CLR,,0.00,WeatherDisplay:10.37,2013-07-14 22:38:00,
2013-07-15 01:42:00,77.2,48.9,29.65,NE,45,1.2,1.2,37,0.00,CLR,,0.00,WeatherDisplay:10.37,2013-07-14 22:42:00,
2013-07-15 01:43:00,77.2,48.9,29.65,NE,45,0.0,0.0,37,0.00,CLR,,0.00,WeatherDisplay:10.37,2013-07-14 22:43:00,
2013-07-15 01:47:00,77.2,48.9,29.65,NE,45,0.0,0.0,37,0.00,CLR,,0.00,WeatherDisplay:10.37,2013-07-14 22:47:00,
2013-07-15 01:48:00,77.2,48.9,29.65,NE,45,0.0,0.0,37,0.00,CLR,,0.00,WeatherDisplay:10.37,2013-07-14 22:48:00,
2013-07-15 01:52:00,77.0,48.0,29.65,NE,45,1.2,0.0,36,0.00,CLR,,0.00,WeatherDisplay:10.37,2013-07-14 22:52:00,
2013-07-15 01:53:00,77.0,48.0,29.65,NE,45,1.2,0.0,36,0.00,CLR,,0.00,WeatherDisplay:10.37,2013-07-14 22:53:00,
2013-07-15 01:54:00,77.0,48.0,29.65,NE,45,0.0,0.0,36,0.00,CLR,,0.00,WeatherDisplay:10.37,2013-07-14 22:54:00,
2013-07-15 01:57:00,77.0,47.2,29.65,NE,45,0.0,0.0,35,0.00,CLR,,0.00,WeatherDisplay:10.37,2013-07-14 22:57:00,
2013-07-15 01:58:00,77.0,47.2,29.65,NE,45,0.0,0.0,35,0.00,CLR,,0.00,WeatherDisplay:10.37,2013-07-14 22:58:00,
2013-07-15 01:59:00,77.0,47.2,29.65,NE,45,0.0,0.0,35,0.00,CLR,,0.00,WeatherDisplay:10.37,2013-07-14 22:59:00,
2013-07-15 02:02:00,76.8,47.8,29.65,NE,45,0.0,0.0,36,0.00,CLR,,0.00,WeatherDisplay:10.37,2013-07-14 23:02:00,
2013-07-15 02:03:00,76.8,47.8,29.65,NE,45,0.0,0.0,36,0.00,CLR,,0.00,WeatherDisplay:10.37,2013-07-14 23:03:00,
2013-07-15 02:04:00,76.8,47.8,29.65,NE,45,0.0,0.0,36,0.00,CLR,,0.00,WeatherDisplay:10.37,2013-07-14 23:04:00,
2013-07-15 02:07:00,76.6,48.4,29.65,NE,45,0.0,0.0,37,0.00,CLR,,0.00,WeatherDisplay:10.37,2013-07-14 23:07:00,
2013-07-15 02:08:00,76.8,49.3,29.65,NE,45,0.0,0.0,38,0.00,CLR,,0.00,WeatherDisplay:10.37,2013-07-14 23:08:00,
2013-07-15 02:09:00,76.8,49.3,29.65,NE,45,0.0,0.0,38,0.00,CLR,,0.00,WeatherDisplay:10.37,2013-07-14 23:09:00,
2013-07-15 02:12:00,77.0,49.4,29.65,NE,45,0.0,0.0,38,0.00,CLR,,0.00,WeatherDisplay:10.37,2013-07-14 23:12:00,
2013-07-15 02:13:00,76.8,50.0,29.65,NE,45,0.0,0.0,39,0.00,CLR,,0.00,WeatherDisplay:10.37,2013-07-14 23:13:00,
2013-07-15 02:14:00,76.8,50.0,29.65,NE,45,0.0,0.0,39,0.00,CLR,,0.00,WeatherDisplay:10.37,2013-07-14 23:14:00,
2013-07-15 02:17:00,76.5,49.0,29.65,NE,45,0.0,0.0,38,0.00,CLR,,0.00,WeatherDisplay:10.37,2013-07-14 23:17:00,
2013-07-15 02:19:00,76.5,49.0,29.65,NE,45,0.0,0.0,38,0.00,CLR,,0.00,WeatherDisplay:10.37,2013-07-14 23:19:00,
2013-07-15 02:22:00,76.5,49.0,29.65,NE,45,0.0,0.0,38,0.00,CLR,,0.00,WeatherDisplay:10.37,2013-07-14 23:22:00,
2013-07-15 02:24:00,76.5,49.7,29.65,NE,45,0.0,0.0,39,0.00,CLR,,0.00,WeatherDisplay:10.37,2013-07-14 23:24:00,
2013-07-15 02:25:00,76.3,49.5,29.65,NE,45,0.0,0.0,39,0.00,CLR,,0.00,WeatherDisplay:10.37,2013-07-14 23:25:00,
2013-07-15 02:28:00,76.5,49.7,29.65,NE,45,0.0,0.0,39,0.00,CLR,,0.00,WeatherDisplay:10.37,2013-07-14 23:28:00,
2013-07-15 02:29:00,76.6,50.5,29.65,NE,45,0.0,0.0,40,0.00,CLR,,0.00,WeatherDisplay:10.37,2013-07-14 23:29:00,
2013-07-15 02:30:00,76.6,50.5,29.65,NE,45,0.0,0.0,40,0.00,CLR,,0.00,WeatherDisplay:10.37,2013-07-14 23:30:00,
2013-07-15 02:33:00,76.5,50.3,29.65,NE,45,0.0,0.0,40,0.00,CLR,,0.00,WeatherDisplay:10.37,2013-07-14 23:33:00,
2013-07-15 02:34:00,76.5,51.0,29.65,NE,45,0.0,0.0,41,0.00,CLR,,0.00,WeatherDisplay:10.37,2013-07-14 23:34:00,
2013-07-15 02:35:00,76.5,51.0,29.65,NE,45,0.0,0.0,41,0.00,CLR,,0.00,WeatherDisplay:10.37,2013-07-14 23:35:00,
2013-07-15 02:38:00,76.5,51.0,29.62,NE,45,0.0,0.0,41,0.00,CLR,,0.00,WeatherDisplay:10.37,2013-07-14 23:38:00,
2013-07-15 02:40:00,76.5,51.7,29.62,NNE,22,0.0,0.0,42,0.00,CLR,,0.00,WeatherDisplay:10.37,2013-07-14 23:40:00,
2013-07-15 02:43:00,76.8,52.0,29.62,WNW,292,2.9,2.9,42,0.00,CLR,,0.00,WeatherDisplay:10.37,2013-07-14 23:43:00,
2013-07-15 02:45:00,76.8,52.0,29.62,NW,315,0.0,0.0,42,0.00,CLR,,0.00,WeatherDisplay:10.37,2013-07-14 23:45:00,
2013-07-15 02:46:00,77.0,51.5,29.62,NW,315,0.0,0.0,41,0.00,CLR,,0.00,WeatherDisplay:10.37,2013-07-14 23:46:00,
2013-07-15 02:48:00,77.0,51.5,29.62,NW,315,0.0,0.0,41,0.00,CLR,,0.00,WeatherDisplay:10.37,2013-07-14 23:48:00,
2013-07-15 02:50:00,77.0,51.5,29.62,NW,315,0.0,0.0,41,0.00,CLR,,0.00,WeatherDisplay:10.37,2013-07-14 23:50:00,
2013-07-15 02:51:00,77.0,51.5,29.62,NW,315,0.0,0.0,41,0.00,CLR,,0.00,WeatherDisplay:10.37,2013-07-14 23:51:00,
2013-07-15 02:53:00,77.2,51.7,29.62,NW,315,0.0,0.0,41,0.00,CLR,,0.00,WeatherDisplay:10.37,2013-07-14 23:53:00,
2013-07-15 02:55:00,77.2,51.7,29.62,NNW,338,2.3,2.3,41,0.00,CLR,,0.00,WeatherDisplay:10.37,2013-07-14 23:55:00,
2013-07-15 02:56:00,77.2,51.7,29.62,WNW,292,2.3,2.3,41,0.00,CLR,,0.00,WeatherDisplay:10.37,2013-07-14 23:56:00,
2013-07-15 02:58:00,77.4,50.5,29.62,NW,315,0.0,0.0,39,0.00,CLR,,0.00,WeatherDisplay:10.37,2013-07-14 23:58:00,
2013-07-15 03:00:00,77.4,50.5,29.62,WNW,292,0.0,0.0,39,0.00,CLR,,0.00,WeatherDisplay:10.37,2013-07-15 00:00:00,
2013-07-15 03:01:00,77.4,50.5,29.62,WNW,292,0.0,0.0,39,0.00,CLR,,0.00,WeatherDisplay:10.37,2013-07-15 00:01:00,
2013-07-15 03:02:00,77.4,50.5,29.62,WNW,292,0.0,0.0,39,0.00,CLR,,0.00,WeatherDisplay:10.37,2013-07-15 00:02:00,
2013-07-15 03:05:00,77.4,49.8,29.62,WNW,292,0.0,0.0,38,0.00,CLR,,0.00,WeatherDisplay:10.37,2013-07-15 00:05:00,
2013-07-15 03:06:00,77.4,49.8,29.62,WNW,292,0.0,0.0,38,0.00,CLR,,0.00,WeatherDisplay:10.37,2013-07-15 00:06:00,
2013-07-15 03:07:00,77.4,48.3,29.62,WNW,292,3.5,3.5,36,0.00,CLR,,0.00,WeatherDisplay:10.37,2013-07-15 00:07:00,
2013-07-15 03:10:00,77.7,46.3,29.62,NNE,22,2.9,2.9,33,0.00,CLR,,0.00,WeatherDisplay:10.37,2013-07-15 00:10:00,
2013-07-15 03:11:00,77.7,46.3,29.62,NNE,22,2.3,2.3,33,0.00,CLR,,0.00,WeatherDisplay:10.37,2013-07-15 00:11:00,
2013-07-15 03:12:00,77.7,46.3,29.62,NNW,338,2.3,2.3,33,0.00,CLR,,0.00,WeatherDisplay:10.37,2013-07-15 00:12:00,
2013-07-15 03:16:00,78.3,46.0,29.62,NNE,22,3.5,3.5,32,0.00,CLR,,0.00,WeatherDisplay:10.37,2013-07-15 00:16:00,
2013-07-15 03:17:00,78.3,46.0,29.62,ENE,68,2.3,2.3,32,0.00,CLR,,0.00,WeatherDisplay:10.37,2013-07-15 00:17:00,
2013-07-15 03:21:00,78.3,46.0,29.62,NE,45,3.5,3.5,32,0.00,CLR,,0.00,WeatherDisplay:10.37,2013-07-15 00:21:00,
2013-07-15 03:22:00,78.3,46.0,29.62,North,0,5.8,5.8,32,0.00,CLR,,0.00,WeatherDisplay:10.37,2013-07-15 00:22:00,
2013-07-15 03:26:00,78.4,45.3,29.62,NNW,338,3.5,3.5,31,0.00,CLR,,0.00,WeatherDisplay:10.37,2013-07-15 00:26:00,
2013-07-15 03:27:00,78.6,45.4,29.62,NNW,338,3.5,3.5,31,0.00,CLR,,0.00,WeatherDisplay:10.37,2013-07-15 00:27:00,
2013-07-15 03:31:00,78.8,45.6,29.62,NNE,22,3.5,3.5,31,0.00,CLR,,0.00,WeatherDisplay:10.37,2013-07-15 00:31:00,
2013-07-15 03:32:00,78.8,45.6,29.62,NNW,338,3.5,3.5,31,0.00,CLR,,0.00,WeatherDisplay:10.37,2013-07-15 00:32:00,
2013-07-15 03:36:00,79.0,43.1,29.62,NNW,338,3.5,3.5,28,0.00,CLR,,0.00,WeatherDisplay:10.37,2013-07-15 00:36:00,
2013-07-15 03:37:00,79.0,43.1,29.62,NNW,338,2.3,2.3,28,0.00,CLR,,0.00,WeatherDisplay:10.37,2013-07-15 00:37:00,
2013-07-15 03:41:00,79.0,43.1,29.62,NNE,22,3.5,3.5,28,0.00,CLR,,0.00,WeatherDisplay:10.37,2013-07-15 00:41:00,
2013-07-15 03:42:00,79.0,43.1,29.62,NNE,22,3.5,3.5,28,0.00,CLR,,0.00,WeatherDisplay:10.37,2013-07-15 00:42:00,
2013-07-15 03:47:00,79.2,43.2,29.62,NNE,22,4.6,4.6,28,0.00,CLR,,0.00,WeatherDisplay:10.37,2013-07-15 00:47:00,
2013-07-15 03:48:00,79.3,43.4,29.62,NNE,22,5.8,5.8,28,0.00,CLR,,0.00,WeatherDisplay:10.37,2013-07-15 00:48:00,
2013-07-15 03:52:00,79.5,43.5,29.62,NNW,338,5.8,5.8,28,0.00,CLR,,0.00,WeatherDisplay:10.37,2013-07-15 00:52:00,
2013-07-15 03:53:00,79.5,43.5,29.62,NNW,338,6.9,6.9,28,0.00,CLR,,0.00,WeatherDisplay:10.37,2013-07-15 00:53:00,
2013-07-15 03:57:00,79.5,43.5,29.62,NNE,22,5.8,5.8,28,0.00,CLR,,0.00,WeatherDisplay:10.37,2013-07-15 00:57:00,
2013-07-15 03:58:00,79.5,43.5,29.62,North,0,5.8,5.8,28,0.00,CLR,,0.00,WeatherDisplay:10.37,2013-07-15 00:58:00,
2013-07-15 04:02:00,79.5,43.5,29.62,NNE,22,4.6,4.6,28,0.00,CLR,,0.00,WeatherDisplay:10.37,2013-07-15 01:02:00,
2013-07-15 04:03:00,79.5,43.5,29.62,NNE,22,4.6,4.6,28,0.00,CLR,,0.00,WeatherDisplay:10.37,2013-07-15 01:03:00,
2013-07-15 04:07:00,79.5,43.5,29.62,NNW,338,5.8,5.8,28,0.00,CLR,,0.00,WeatherDisplay:10.37,2013-07-15 01:07:00,
2013-07-15 04:08:00,79.5,43.5,29.62,North,0,5.8,5.8,28,0.00,CLR,,0.00,WeatherDisplay:10.37,2013-07-15 01:08:00,
2013-07-15 04:09:00,79.5,43.5,29.62,North,0,3.5,3.8,28,0.00,CLR,,0.00,WeatherDisplay:10.37,2013-07-15 01:09:00,
2013-07-15 04:12:00,79.5,43.5,29.62,NNW,338,6.2,6.2,28,0.00,CLR,,0.00,WeatherDisplay:10.37,2013-07-15 01:12:00,
2013-07-15 04:13:00,79.5,43.5,29.62,NNW,338,5.8,5.8,28,0.00,CLR,,0.00,WeatherDisplay:10.37,2013-07-15 01:13:00,
2013-07-15 04:14:00,79.5,43.5,29.62,NE,45,5.9,5.9,28,0.00,CLR,,0.00,WeatherDisplay:10.37,2013-07-15 01:14:00,
2013-07-15 04:18:00,79.7,43.7,29.62,NNW,338,5.8,5.8,28,0.00,CLR,,0.00,WeatherDisplay:10.37,2013-07-15 01:18:00,
2013-07-15 04:19:00,79.7,43.7,29.62,NNW,338,5.8,5.8,28,0.00,CLR,,0.00,WeatherDisplay:10.37,2013-07-15 01:19:00,
2013-07-15 04:23:00,79.7,43.7,29.62,NNW,338,8.1,8.1,28,0.00,CLR,,0.00,WeatherDisplay:10.37,2013-07-15 01:23:00,
2013-07-15 04:24:00,79.7,43.7,29.62,NNE,22,8.1,8.1,28,0.00,CLR,,0.00,WeatherDisplay:10.37,2013-07-15 01:24:00,
2013-07-15 04:28:00,79.7,43.7,29.62,North,0,8.1,8.1,28,0.00,CLR,,0.00,WeatherDisplay:10.37,2013-07-15 01:28:00,
2013-07-15 04:29:00,79.7,43.7,29.62,NW,315,6.9,6.9,28,0.00,CLR,,0.00,WeatherDisplay:10.37,2013-07-15 01:29:00,
2013-07-15 04:30:00,79.7,43.7,29.62,NW,315,6.9,6.9,28,0.00,CLR,,0.00,WeatherDisplay:10.37,2013-07-15 01:30:00,
2013-07-15 04:33:00,79.7,43.7,29.62,North,0,9.2,9.2,28,0.00,CLR,,0.00,WeatherDisplay:10.37,2013-07-15 01:33:00,
2013-07-15 04:34:00,79.7,43.7,29.62,NNW,338,8.1,8.1,28,0.00,CLR,,0.00,WeatherDisplay:10.37,2013-07-15 01:34:00,
2013-07-15 04:35:00,79.7,43.7,29.62,NNW,338,5.8,5.8,28,0.00,CLR,,0.00,WeatherDisplay:10.37,2013-07-15 01:35:00,
2013-07-15 04:39:00,79.7,43.7,29.62,NNW,338,6.9,6.9,28,0.00,CLR,,0.00,WeatherDisplay:10.37,2013-07-15 01:39:00,
2013-07-15 04:40:00,79.7,43.7,29.62,North,0,6.9,6.9,28,0.00,CLR,,0.00,WeatherDisplay:10.37,2013-07-15 01:40:00,
2013-07-15 04:44:00,79.7,43.7,29.62,NNW,338,8.1,8.1,28,0.00,CLR,,0.00,WeatherDisplay:10.37,2013-07-15 01:44:00,
2013-07-15 04:45:00,79.7,43.7,29.62,North,350,7.0,10.0,28,0.00,CLR,,0.00,WeatherDisplay:10.37,2013-07-15 01:45:00,
2013-07-15 04:49:00,79.7,43.7,29.62,North,0,5.8,5.8,28,0.00,CLR,,0.00,WeatherDisplay:10.37,2013-07-15 01:49:00,
2013-07-15 04:50:00,79.7,43.7,29.62,NNW,338,6.0,6.0,28,0.00,CLR,,0.00,WeatherDisplay:10.37,2013-07-15 01:50:00,
2013-07-15 04:51:00,79.5,43.5,29.62,NNW,338,8.1,8.1,28,0.00,CLR,,0.00,WeatherDisplay:10.37,2013-07-15 01:51:00,
2013-07-15 04:54:00,79.5,43.5,29.62,North,0,6.0,6.0,28,0.00,CLR,,0.00,WeatherDisplay:10.37,2013-07-15 01:54:00,
2013-07-15 04:55:00,79.5,43.5,29.62,NNW,338,7.1,7.1,28,0.00,CLR,,0.00,WeatherDisplay:10.37,2013-07-15 01:55:00,
2013-07-15 04:56:00,79.5,43.5,29.62,NNW,338,6.9,6.9,28,0.00,CLR,,0.00,WeatherDisplay:10.37,2013-07-15 01:56:00,
2013-07-15 05:00:00,79.5,43.5,29.62,NNW,338,6.4,6.4,28,0.00,CLR,,0.00,WeatherDisplay:10.37,2013-07-15 02:00:00,
2013-07-15 05:01:00,79.5,43.5,29.62,North,0,9.4,9.4,28,0.00,CLR,,0.00,WeatherDisplay:10.37,2013-07-15 02:01:00,
2013-07-15 05:05:00,79.3,43.4,29.62,NNW,338,6.9,6.9,28,0.00,CLR,,0.00,WeatherDisplay:10.37,2013-07-15 02:05:00,
2013-07-15 05:06:00,79.3,43.4,29.62,NW,315,4.6,4.6,28,0.00,CLR,,0.00,WeatherDisplay:10.37,2013-07-15 02:06:00,
2013-07-15 05:10:00,79.3,43.4,29.62,NNW,338,6.9,6.9,28,0.00,CLR,,0.00,WeatherDisplay:10.37,2013-07-15 02:10:00,
2013-07-15 05:11:00,79.3,43.4,29.62,NNW,338,6.9,6.9,28,0.00,CLR,,0.00,WeatherDisplay:10.37,2013-07-15 02:11:00,
2013-07-15 05:15:00,79.3,43.4,29.62,NNW,338,6.0,6.0,28,0.00,CLR,,0.00,WeatherDisplay:10.37,2013-07-15 02:15:00,
2013-07-15 05:16:00,79.2,43.2,29.62,NW,315,5.8,5.8,28,0.00,CLR,,0.00,WeatherDisplay:10.37,2013-07-15 02:16:00,
2013-07-15 05:20:00,79.2,43.2,29.62,North,0,4.6,4.6,28,0.00,CLR,,0.00,WeatherDisplay:10.37,2013-07-15 02:20:00,
2013-07-15 05:21:00,79.2,43.2,29.62,NNW,338,5.8,5.8,28,0.00,CLR,,0.00,WeatherDisplay:10.37,2013-07-15 02:21:00,
2013-07-15 05:22:00,79.2,43.2,29.62,NNW,338,4.6,4.6,28,0.00,CLR,,0.00,WeatherDisplay:10.37,2013-07-15 02:22:00,
2013-07-15 05:25:00,79.3,43.4,29.62,NNW,338,8.1,8.1,28,0.00,CLR,,0.00,WeatherDisplay:10.37,2013-07-15 02:25:00,
2013-07-15 05:26:00,79.3,43.4,29.62,NNW,338,8.1,8.1,28,0.00,CLR,,0.00,WeatherDisplay:10.37,2013-07-15 02:26:00,
2013-07-15 05:27:00,79.3,43.4,29.62,NNW,338,8.1,8.1,28,0.00,CLR,,0.00,WeatherDisplay:10.37,2013-07-15 02:27:00,
2013-07-15 05:30:00,79.3,43.4,29.62,NNW,338,5.8,5.8,28,0.00,CLR,,0.00,WeatherDisplay:10.37,2013-07-15 02:30:00,
2013-07-15 05:32:00,79.3,43.4,29.62,North,0,5.8,5.8,28,0.00,CLR,,0.00,WeatherDisplay:10.37,2013-07-15 02:32:00,
2013-07-15 05:36:00,79.3,43.4,29.62,NW,315,5.8,5.8,28,0.00,CLR,,0.00,WeatherDisplay:10.37,2013-07-15 02:36:00,
2013-07-15 05:37:00,79.3,43.4,29.62,NNW,338,5.8,5.8,28,0.00,CLR,,0.00,WeatherDisplay:10.37,2013-07-15 02:37:00,
2013-07-15 05:41:00,79.3,43.4,29.62,NNW,338,6.9,6.9,28,0.00,CLR,,0.00,WeatherDisplay:10.37,2013-07-15 02:41:00,
2013-07-15 05:42:00,79.3,43.4,29.62,NNW,338,4.6,4.6,28,0.00,CLR,,0.00,WeatherDisplay:10.37,2013-07-15 02:42:00,
2013-07-15 05:43:00,79.3,43.4,29.62,NNW,338,6.2,6.2,28,0.00,CLR,,0.00,WeatherDisplay:10.37,2013-07-15 02:43:00,
2013-07-15 05:46:00,79.3,43.4,29.62,NW,315,5.8,5.8,28,0.00,CLR,,0.00,WeatherDisplay:10.37,2013-07-15 02:46:00,
2013-07-15 05:47:00,79.3,43.4,29.62,North,0,5.8,5.8,28,0.00,CLR,,0.00,WeatherDisplay:10.37,2013-07-15 02:47:00,
2013-07-15 05:48:00,79.3,43.4,29.62,NNW,338,9.2,9.2,28,0.00,CLR,,0.00,WeatherDisplay:10.37,2013-07-15 02:48:00,
2013-07-15 05:51:00,79.3,43.4,29.62,North,0,8.1,8.1,28,0.00,CLR,,0.00,WeatherDisplay:10.37,2013-07-15 02:51:00,
2013-07-15 05:52:00,79.5,41.6,29.62,NNW,338,8.1,8.1,26,0.00,CLR,,0.00,WeatherDisplay:10.37,2013-07-15 02:52:00,
2013-07-15 05:53:00,79.5,41.6,29.62,NNW,338,9.2,9.2,26,0.00,CLR,,0.00,WeatherDisplay:10.37,2013-07-15 02:53:00,
2013-07-15 05:56:00,79.5,41.6,29.62,NNW,338,5.8,5.8,26,0.00,CLR,,0.00,WeatherDisplay:10.37,2013-07-15 02:56:00,
2013-07-15 05:57:00,79.5,41.6,29.62,NNE,22,7.6,7.6,26,0.00,CLR,,0.00,WeatherDisplay:10.37,2013-07-15 02:57:00,
2013-07-15 05:58:00,79.7,41.8,29.62,North,0,8.1,8.1,26,0.00,CLR,,0.00,WeatherDisplay:10.37,2013-07-15 02:58:00,
2013-07-15 06:01:00,79.7,41.8,29.62,NNW,338,8.1,8.1,26,0.00,CLR,,0.00,WeatherDisplay:10.37,2013-07-15 03:01:00,
2013-07-15 06:03:00,79.7,41.8,29.62,NW,315,8.1,8.1,26,0.00,CLR,,0.00,WeatherDisplay:10.37,2013-07-15 03:03:00,
2013-07-15 06:04:00,79.7,41.8,29.62,NNW,338,6.2,6.2,26,0.00,CLR,,0.00,WeatherDisplay:10.37,2013-07-15 03:04:00,
2013-07-15 06:07:00,79.7,41.8,29.62,NNW,338,6.9,6.9,26,0.00,CLR,,0.00,WeatherDisplay:10.37,2013-07-15 03:07:00,
2013-07-15 06:08:00,79.7,41.8,29.62,North,0,5.9,5.9,26,0.00,CLR,,0.00,WeatherDisplay:10.37,2013-07-15 03:08:00,
2013-07-15 06:09:00,79.7,41.8,29.62,NNW,338,8.1,8.1,26,0.00,CLR,,0.00,WeatherDisplay:10.37,2013-07-15 03:09:00,
2013-07-15 06:12:00,79.7,41.8,29.62,NNE,22,8.1,8.1,26,0.00,CLR,,0.00,WeatherDisplay:10.37,2013-07-15 03:12:00,
2013-07-15 06:13:00,79.7,41.8,29.62,NNW,338,8.1,8.1,26,0.00,CLR,,0.00,WeatherDisplay:10.37,2013-07-15 03:13:00,
2013-07-15 06:14:00,79.7,41.8,29.62,North,0,5.8,5.8,26,0.00,CLR,,0.00,WeatherDisplay:10.37,2013-07-15 03:14:00,
2013-07-15 06:18:00,79.7,41.8,29.62,NNW,338,8.1,8.1,26,0.00,CLR,,0.00,WeatherDisplay:10.37,2013-07-15 03:18:00,
2013-07-15 06:19:00,79.7,41.8,29.62,NNE,22,6.9,6.9,26,0.00,CLR,,0.00,WeatherDisplay:10.37,2013-07-15 03:19:00,
2013-07-15 06:20:00,79.7,41.8,29.62,NNW,338,7.1,7.1,26,0.00,CLR,,0.00,WeatherDisplay:10.37,2013-07-15 03:20:00,
2013-07-15 06:23:00,79.7,41.8,29.62,North,0,8.1,8.1,26,0.00,CLR,,0.00,WeatherDisplay:10.37,2013-07-15 03:23:00,
2013-07-15 06:24:00,79.7,41.8,29.62,NNW,338,6.9,6.9,26,0.00,CLR,,0.00,WeatherDisplay:10.37,2013-07-15 03:24:00,
2013-07-15 06:25:00,79.7,41.8,29.62,NNW,338,4.6,4.6,26,0.00,CLR,,0.00,WeatherDisplay:10.37,2013-07-15 03:25:00,
2013-07-15 06:28:00,79.7,41.8,29.62,North,0,5.8,5.8,26,0.00,CLR,,0.00,WeatherDisplay:10.37,2013-07-15 03:28:00,
2013-07-15 06:29:00,79.7,41.8,29.62,NW,315,5.8,5.8,26,0.00,CLR,,0.00,WeatherDisplay:10.37,2013-07-15 03:29:00,
2013-07-15 06:30:00,79.7,41.8,29.62,NNW,338,4.6,4.6,26,0.00,CLR,,0.00,WeatherDisplay:10.37,2013-07-15 03:30:00,
2013-07-15 06:33:00,79.7,41.8,29.62,NNE,22,4.6,4.6,26,0.00,CLR,,0.00,WeatherDisplay:10.37,2013-07-15 03:33:00,
2013-07-15 06:34:00,79.7,41.8,29.62,NNW,338,4.6,4.6,26,0.00,CLR,,0.00,WeatherDisplay:10.37,2013-07-15 03:34:00,
2013-07-15 06:35:00,79.7,41.8,29.62,NNW,338,4.6,4.6,26,0.00,CLR,,0.00,WeatherDisplay:10.37,2013-07-15 03:35:00,
2013-07-15 06:38:00,79.5,41.6,29.62,NNW,338,4.6,4.6,26,0.00,CLR,,0.00,WeatherDisplay:10.37,2013-07-15 03:38:00,
2013-07-15 06:39:00,79.5,41.6,29.62,NNW,338,4.6,4.6,26,0.00,CLR,,0.00,WeatherDisplay:10.37,2013-07-15 03:39:00,
2013-07-15 06:40:00,79.5,41.6,29.62,NNW,338,4.6,4.6,26,0.00,CLR,,0.00,WeatherDisplay:10.37,2013-07-15 03:40:00,
2013-07-15 06:43:00,79.5,41.6,29.62,NNW,338,6.9,6.9,26,0.00,CLR,,0.00,WeatherDisplay:10.37,2013-07-15 03:43:00,
2013-07-15 06:44:00,79.5,41.6,29.62,North,0,6.0,6.0,26,0.00,CLR,,0.00,WeatherDisplay:10.37,2013-07-15 03:44:00,
2013-07-15 06:45:00,79.7,41.8,29.62,NNW,338,5.8,5.8,26,0.00,CLR,,0.00,WeatherDisplay:10.37,2013-07-15 03:45:00,
2013-07-15 06:49:00,79.7,41.8,29.62,NNE,22,5.4,5.4,26,0.00,CLR,,0.00,WeatherDisplay:10.37,2013-07-15 03:49:00,
2013-07-15 06:50:00,79.7,41.8,29.62,NNW,338,5.8,5.8,26,0.00,CLR,,0.00,WeatherDisplay:10.37,2013-07-15 03:50:00,
2013-07-15 06:54:00,79.7,41.8,29.62,NW,315,3.5,3.5,26,0.00,CLR,,0.00,WeatherDisplay:10.37,2013-07-15 03:54:00,
2013-07-15 06:55:00,79.7,41.8,29.62,NNW,337,3.0,8.0,26,0.00,CLR,,0.00,WeatherDisplay:10.37,2013-07-15 03:55:00,
2013-07-15 06:56:00,79.7,41.8,29.62,NNW,338,8.1,8.1,26,0.00,CLR,,0.00,WeatherDisplay:10.37,2013-07-15 03:56:00,
2013-07-15 06:59:00,79.5,41.6,29.62,NNW,338,4.6,4.6,26,0.00,CLR,,0.00,WeatherDisplay:10.37,2013-07-15 03:59:00,
2013-07-15 07:00:00,79.5,41.6,29.62,NNW,338,5.8,5.8,26,0.00,CLR,,0.00,WeatherDisplay:10.37,2013-07-15 04:00:00,
2013-07-15 07:01:00,79.5,41.6,29.62,WNW,292,5.8,5.8,26,0.00,CLR,,0.00,WeatherDisplay:10.37,2013-07-15 04:01:00,
2013-07-15 07:06:00,79.7,43.7,29.62,NNW,338,5.8,5.8,28,0.00,CLR,,0.00,WeatherDisplay:10.37,2013-07-15 04:06:00,
2013-07-15 07:11:00,80.8,44.6,29.62,NNW,338,4.6,4.6,28,0.00,CLR,,0.00,WeatherDisplay:10.37,2013-07-15 04:11:00,
2013-07-15 07:12:00,80.8,44.6,29.62,NW,315,4.6,4.6,28,0.00,CLR,,0.00,WeatherDisplay:10.37,2013-07-15 04:12:00,
2013-07-15 07:16:00,81.3,42.1,29.62,NW,315,8.1,8.1,25,0.00,CLR,,0.00,WeatherDisplay:10.37,2013-07-15 04:16:00,
2013-07-15 07:17:00,81.3,42.1,29.62,NNE,22,8.5,8.5,25,0.00,CLR,,0.00,WeatherDisplay:10.37,2013-07-15 04:17:00,
2013-07-15 07:21:00,81.7,45.4,29.62,WNW,292,8.1,8.1,28,0.00,CLR,,0.00,WeatherDisplay:10.37,2013-07-15 04:21:00,
2013-07-15 07:22:00,81.7,45.4,29.62,WNW,292,5.8,5.8,28,0.00,CLR,,0.00,WeatherDisplay:10.37,2013-07-15 04:22:00,
2013-07-15 07:23:00,81.9,45.6,29.62,NW,315,9.2,9.2,28,0.00,CLR,,0.00,WeatherDisplay:10.37,2013-07-15 04:23:00,
2013-07-15 07:27:00,82.0,45.7,29.65,NNW,338,8.1,8.1,28,0.00,CLR,,0.00,WeatherDisplay:10.37,2013-07-15 04:27:00,
2013-07-15 07:28:00,82.0,45.7,29.65,NNW,338,8.1,8.1,28,0.00,CLR,,0.00,WeatherDisplay:10.37,2013-07-15 04:28:00,
2013-07-15 07:32:00,82.2,45.9,29.65,WNW,292,8.1,8.1,28,0.00,CLR,,0.00,WeatherDisplay:10.37,2013-07-15 04:32:00,
2013-07-15 07:33:00,82.2,45.9,29.65,North,0,6.9,6.9,28,0.00,CLR,,0.00,WeatherDisplay:10.37,2013-07-15 04:33:00,
2013-07-15 07:37:00,82.4,45.1,29.65,NNW,338,6.0,6.0,27,0.00,CLR,,0.00,WeatherDisplay:10.37,2013-07-15 04:37:00,
2013-07-15 07:38:00,82.6,45.2,29.65,NW,315,5.9,5.9,27,0.00,CLR,,0.00,WeatherDisplay:10.37,2013-07-15 04:38:00,
2013-07-15 07:42:00,82.8,45.4,29.65,West,270,8.5,8.5,27,0.00,CLR,,0.00,WeatherDisplay:10.37,2013-07-15 04:42:00,
2013-07-15 07:43:00,82.9,45.5,29.65,NNW,338,8.1,8.1,27,0.00,CLR,,0.00,WeatherDisplay:10.37,2013-07-15 04:43:00,
2013-07-15 07:47:00,82.9,45.5,29.65,NNW,338,8.1,8.1,27,0.00,CLR,,0.00,WeatherDisplay:10.37,2013-07-15 04:47:00,
2013-07-15 07:48:00,83.1,45.7,29.65,NW,315,8.1,8.1,27,0.00,CLR,,0.00,WeatherDisplay:10.37,2013-07-15 04:48:00,
2013-07-15 07:52:00,82.9,45.5,29.65,NNW,338,6.9,6.9,27,0.00,CLR,,0.00,WeatherDisplay:10.37,2013-07-15 04:52:00,
2013-07-15 07:53:00,82.9,45.5,29.65,NNE,22,8.1,8.1,27,0.00,CLR,,0.00,WeatherDisplay:10.37,2013-07-15 04:53:00,
2013-07-15 07:54:00,83.1,45.7,29.65,NNW,338,8.1,8.1,27,0.00,CLR,,0.00,WeatherDisplay:10.37,2013-07-15 04:54:00,
2013-07-15 07:57:00,83.1,45.7,29.65,NNE,22,6.9,6.9,27,0.00,CLR,,0.00,WeatherDisplay:10.37,2013-07-15 04:57:00,
2013-07-15 07:58:00,83.1,45.7,29.65,NNW,338,10.4,10.4,27,0.00,CLR,,0.00,WeatherDisplay:10.37,2013-07-15 04:58:00,
2013-07-15 07:59:00,83.1,45.7,29.65,NNW,338,10.4,10.4,27,0.00,CLR,,0.00,WeatherDisplay:10.37,2013-07-15 04:59:00,
2013-07-15 08:02:00,83.3,45.8,29.65,North,0,5.8,5.9,27,0.00,CLR,,0.00,WeatherDisplay:10.37,2013-07-15 05:02:00,
2013-07-15 08:03:00,83.3,45.8,29.65,NNW,338,5.8,5.9,27,0.00,CLR,,0.00,WeatherDisplay:10.37,2013-07-15 05:03:00,
2013-07-15 08:04:00,83.3,45.8,29.65,NNW,338,5.8,5.8,27,0.00,CLR,,0.00,WeatherDisplay:10.37,2013-07-15 05:04:00,
2013-07-15 08:07:00,83.5,46.0,29.65,NW,315,6.9,6.9,27,0.00,CLR,,0.00,WeatherDisplay:10.37,2013-07-15 05:07:00,
2013-07-15 08:08:00,83.5,46.0,29.65,NNW,338,8.1,8.1,27,0.00,CLR,,0.00,WeatherDisplay:10.37,2013-07-15 05:08:00,
2013-07-15 08:09:00,83.5,46.0,29.65,NNW,338,9.2,9.2,27,0.00,CLR,,0.00,WeatherDisplay:10.37,2013-07-15 05:09:00,
2013-07-15 08:10:00,83.5,46.0,29.65,NW,315,9.2,9.2,27,0.00,CLR,,0.00,WeatherDisplay:10.37,2013-07-15 05:10:00,
2013-07-15 08:13:00,82.9,45.5,29.65,WNW,292,10.4,10.4,27,0.00,CLR,,0.00,WeatherDisplay:10.37,2013-07-15 05:13:00,
2013-07-15 08:14:00,83.1,45.7,29.65,NW,315,9.2,9.2,27,0.00,CLR,,0.00,WeatherDisplay:10.37,2013-07-15 05:14:00,
2013-07-15 08:15:00,83.1,45.7,29.65,North,0,8.1,8.1,27,0.00,CLR,,0.00,WeatherDisplay:10.37,2013-07-15 05:15:00,
2013-07-15 08:18:00,83.1,45.7,29.65,WNW,292,8.1,8.1,27,0.00,CLR,,0.00,WeatherDisplay:10.37,2013-07-15 05:18:00,
2013-07-15 08:19:00,83.3,45.8,29.65,WNW,292,10.4,10.4,27,0.00,CLR,,0.00,WeatherDisplay:10.37,2013-07-15 05:19:00,
2013-07-15 08:20:00,83.3,45.8,29.65,West,270,8.1,8.1,27,0.00,CLR,,0.00,WeatherDisplay:10.37,2013-07-15 05:20:00,
2013-07-15 08:23:00,83.3,48.6,29.65,West,270,5.8,5.9,30,0.00,CLR,,0.00,WeatherDisplay:10.37,2013-07-15 05:23:00,
2013-07-15 08:24:00,83.1,48.5,29.65,WNW,292,10.7,10.7,30,0.00,CLR,,0.00,WeatherDisplay:10.37,2013-07-15 05:24:00,
2013-07-15 08:25:00,83.3,48.6,29.65,WNW,301,7.0,12.0,30,0.00,CLR,,0.00,WeatherDisplay:10.37,2013-07-15 05:25:00,
2013-07-15 08:28:00,83.8,46.3,29.65,WNW,292,9.2,9.2,27,0.00,CLR,,0.00,WeatherDisplay:10.37,2013-07-15 05:28:00,
2013-07-15 08:29:00,84.0,46.4,29.65,WNW,292,9.2,9.2,27,0.00,CLR,,0.00,WeatherDisplay:10.37,2013-07-15 05:29:00,
2013-07-15 08:30:00,84.0,46.4,29.65,WNW,303,5.0,10.0,27,0.00,CLR,,0.00,WeatherDisplay:10.37,2013-07-15 05:30:00,
2013-07-15 08:33:00,84.0,46.4,29.65,WNW,292,10.0,10.0,27,0.00,CLR,,0.00,WeatherDisplay:10.37,2013-07-15 05:33:00,
2013-07-15 08:34:00,84.0,46.4,29.65,WNW,292,10.4,10.4,27,0.00,CLR,,0.00,WeatherDisplay:10.37,2013-07-15 05:34:00,
2013-07-15 08:35:00,84.0,46.4,29.65,WNW,292,9.2,9.2,27,0.00,CLR,,0.00,WeatherDisplay:10.37,2013-07-15 05:35:00,
2013-07-15 08:39:00,84.0,46.4,29.65,WNW,292,11.5,11.5,27,0.00,CLR,,0.00,WeatherDisplay:10.37,2013-07-15 05:39:00,
2013-07-15 08:40:00,84.0,46.4,29.65,NNW,338,11.5,11.5,27,0.00,CLR,,0.00,WeatherDisplay:10.37,2013-07-15 05:40:00,
2013-07-15 08:41:00,84.0,46.4,29.65,WNW,292,8.1,8.1,27,0.00,CLR,,0.00,WeatherDisplay:10.37,2013-07-15 05:41:00,
2013-07-15 08:44:00,84.6,46.9,29.65,North,0,8.1,8.1,27,0.00,CLR,,0.00,WeatherDisplay:10.37,2013-07-15 05:44:00,
2013-07-15 08:45:00,84.6,46.9,29.65,NNW,338,6.9,6.9,27,0.00,CLR,,0.00,WeatherDisplay:10.37,2013-07-15 05:45:00,
2013-07-15 08:46:00,84.9,47.2,29.65,NW,315,6.9,6.9,27,0.00,CLR,,0.00,WeatherDisplay:10.37,2013-07-15 05:46:00,
2013-07-15 08:49:00,84.9,47.2,29.65,NW,315,5.8,6.0,27,0.00,CLR,,0.00,WeatherDisplay:10.37,2013-07-15 05:49:00,
2013-07-15 08:50:00,85.1,47.4,29.65,North,0,9.0,9.0,27,0.00,CLR,,0.00,WeatherDisplay:10.37,2013-07-15 05:50:00,
2013-07-15 08:51:00,85.3,47.5,29.65,NNW,338,9.2,9.2,27,0.00,CLR,,0.00,WeatherDisplay:10.37,2013-07-15 05:51:00,
2013-07-15 08:54:00,84.9,47.2,29.68,NNW,338,8.1,8.1,27,0.00,CLR,,0.00,WeatherDisplay:10.37,2013-07-15 05:54:00,
2013-07-15 08:55:00,84.9,47.2,29.68,NNW,338,11.5,11.5,27,0.00,CLR,,0.00,WeatherDisplay:10.37,2013-07-15 05:55:00,
2013-07-15 08:56:00,85.1,47.4,29.68,North,0,8.1,8.1,27,0.00,CLR,,0.00,WeatherDisplay:10.37,2013-07-15 05:56:00,
2013-07-15 08:59:00,85.8,48.0,29.68,NNW,338,5.8,5.8,27,0.00,CLR,,0.00,WeatherDisplay:10.37,2013-07-15 05:59:00,
2013-07-15 09:00:00,85.8,48.0,29.68,NW,315,5.8,5.8,27,0.00,CLR,,0.00,WeatherDisplay:10.37,2013-07-15 06:00:00,
2013-07-15 09:01:00,86.2,48.3,29.68,West,270,4.7,4.7,27,0.00,CLR,,0.00,WeatherDisplay:10.37,2013-07-15 06:01:00,
2013-07-15 09:02:00,86.2,48.3,29.68,NW,315,9.8,9.8,27,0.00,CLR,,0.00,WeatherDisplay:10.37,2013-07-15 06:02:00,
2013-07-15 09:05:00,85.8,48.0,29.68,NNW,338,6.9,6.9,27,0.00,CLR,,0.00,WeatherDisplay:10.37,2013-07-15 06:05:00,
2013-07-15 09:06:00,86.4,48.4,29.68,NNW,338,5.8,5.8,27,0.00,CLR,,0.00,WeatherDisplay:10.37,2013-07-15 06:06:00,
2013-07-15 09:07:00,86.4,48.4,29.68,WNW,292,8.1,8.1,27,0.00,CLR,,0.00,WeatherDisplay:10.37,2013-07-15 06:07:00,
2013-07-15 09:10:00,86.2,48.3,29.68,North,0,13.8,13.8,27,0.00,CLR,,0.00,WeatherDisplay:10.37,2013-07-15 06:10:00,
2013-07-15 09:11:00,86.2,48.3,29.68,NW,315,6.9,6.9,27,0.00,CLR,,0.00,WeatherDisplay:10.37,2013-07-15 06:11:00,
2013-07-15 09:12:00,86.2,48.3,29.68,NNW,338,6.9,6.9,27,0.00,CLR,,0.00,WeatherDisplay:10.37,2013-07-15 06:12:00,
2013-07-15 09:15:00,86.4,48.4,29.68,North,0,7.1,7.1,27,0.00,CLR,,0.00,WeatherDisplay:10.37,2013-07-15 06:15:00,
2013-07-15 09:16:00,86.4,48.4,29.68,North,0,6.9,6.9,27,0.00,CLR,,0.00,WeatherDisplay:10.37,2013-07-15 06:16:00,
2013-07-15 09:17:00,86.2,48.3,29.68,NNW,338,8.1,8.1,27,0.00,CLR,,0.00,WeatherDisplay:10.37,2013-07-15 06:17:00,
2013-07-15 09:18:00,86.2,48.3,29.68,North,0,6.9,6.9,27,0.00,CLR,,0.00,WeatherDisplay:10.37,2013-07-15 06:18:00,
2013-07-15 09:20:00,86.5,48.6,29.68,NNW,338,6.9,6.9,27,0.00,CLR,,0.00,WeatherDisplay:10.37,2013-07-15 06:20:00,
2013-07-15 09:21:00,86.5,48.6,29.68,NNW,338,8.1,8.1,27,0.00,CLR,,0.00,WeatherDisplay:10.37,2013-07-15 06:21:00,
2013-07-15 09:23:00,86.5,48.6,29.68,NNW,338,8.1,8.1,27,0.00,CLR,,0.00,WeatherDisplay:10.37,2013-07-15 06:23:00,
2013-07-15 09:25:00,86.7,45.6,29.68,NNW,338,9.2,9.2,24,0.00,CLR,,0.00,WeatherDisplay:10.37,2013-07-15 06:25:00,
2013-07-15 09:26:00,86.5,45.5,29.68,NW,315,7.6,7.6,24,0.00,CLR,,0.00,WeatherDisplay:10.37,2013-07-15 06:26:00,
2013-07-15 09:28:00,86.4,45.3,29.68,NE,45,9.2,9.2,24,0.00,CLR,,0.00,WeatherDisplay:10.37,2013-07-15 06:28:00,
2013-07-15 09:29:00,86.4,45.3,29.68,NE,45,9.2,9.2,24,0.00,CLR,,0.00,WeatherDisplay:10.37,2013-07-15 06:29:00,
2013-07-15 09:31:00,86.4,45.3,29.68,NNE,22,10.4,10.4,24,0.00,CLR,,0.00,WeatherDisplay:10.37,2013-07-15 06:31:00,
2013-07-15 09:33:00,86.9,45.8,29.68,NNE,22,5.8,5.8,24,0.00,CLR,,0.00,WeatherDisplay:10.37,2013-07-15 06:33:00,
2013-07-15 09:34:00,87.4,49.3,29.68,NNW,338,4.6,4.6,27,0.00,CLR,,0.00,WeatherDisplay:10.37,2013-07-15 06:34:00,
2013-07-15 09:36:00,87.8,48.6,29.68,NNW,338,6.9,6.9,26,0.00,CLR,,0.00,WeatherDisplay:10.37,2013-07-15 06:36:00,
2013-07-15 09:37:00,87.8,48.6,29.68,NNW,338,5.8,5.8,26,0.00,CLR,,0.00,WeatherDisplay:10.37,2013-07-15 06:37:00,
2013-07-15 09:38:00,87.3,46.1,29.68,NW,315,12.7,12.7,24,0.00,CLR,,0.00,WeatherDisplay:10.37,2013-07-15 06:38:00,
2013-07-15 09:39:00,87.3,46.1,29.68,WNW,292,9.2,9.2,24,0.00,CLR,,0.00,WeatherDisplay:10.37,2013-07-15 06:39:00,
2013-07-15 09:41:00,87.3,46.1,29.68,NW,315,6.9,6.9,24,0.00,CLR,,0.00,WeatherDisplay:10.37,2013-07-15 06:41:00,
2013-07-15 09:43:00,87.3,46.1,29.68,NNW,338,9.2,9.2,24,0.00,CLR,,0.00,WeatherDisplay:10.37,2013-07-15 06:43:00,
2013-07-15 09:44:00,87.3,46.1,29.68,NW,315,9.2,9.2,24,0.00,CLR,,0.00,WeatherDisplay:10.37,2013-07-15 06:44:00,
2013-07-15 09:46:00,86.9,45.8,29.68,NNW,338,9.2,9.2,24,0.00,CLR,,0.00,WeatherDisplay:10.37,2013-07-15 06:46:00,
2013-07-15 09:48:00,87.1,45.9,29.68,NE,45,8.1,8.1,24,0.00,CLR,,0.00,WeatherDisplay:10.37,2013-07-15 06:48:00,
2013-07-15 09:49:00,87.6,46.4,29.68,NNW,338,5.8,5.8,24,0.00,CLR,,0.00,WeatherDisplay:10.37,2013-07-15 06:49:00,
2013-07-15 09:50:00,88.0,46.7,29.68,NW,315,5.8,5.8,24,0.00,CLR,,0.00,WeatherDisplay:10.37,2013-07-15 06:50:00,
2013-07-15 09:51:00,88.0,46.7,29.68,NW,315,10.4,10.4,24,0.00,CLR,,0.00,WeatherDisplay:10.37,2013-07-15 06:51:00,
2013-07-15 09:53:00,87.8,46.5,29.68,ENE,68,8.1,8.1,24,0.00,CLR,,0.00,WeatherDisplay:10.37,2013-07-15 06:53:00,
2013-07-15 09:54:00,88.0,46.7,29.68,NW,315,5.8,6.4,24,0.00,CLR,,0.00,WeatherDisplay:10.37,2013-07-15 06:54:00,
2013-07-15 09:55:00,88.3,47.0,29.68,North,0,7.4,7.4,24,0.00,CLR,,0.00,WeatherDisplay:10.37,2013-07-15 06:55:00,
2013-07-15 09:56:00,87.8,46.5,29.68,North,0,10.4,10.4,24,0.00,CLR,,0.00,WeatherDisplay:10.37,2013-07-15 06:56:00,
2013-07-15 09:57:00,87.8,46.5,29.68,North,0,10.4,10.4,24,0.00,CLR,,0.00,WeatherDisplay:10.37,2013-07-15 06:57:00,
2013-07-15 09:58:00,88.2,46.8,29.68,NNE,22,8.1,8.1,24,0.00,CLR,,0.00,WeatherDisplay:10.37,2013-07-15 06:58:00,
2013-07-15 09:59:00,88.2,46.8,29.68,NNW,338,6.0,6.0,24,0.00,CLR,,0.00,WeatherDisplay:10.37,2013-07-15 06:59:00,
2013-07-15 10:00:00,88.5,47.1,29.68,NNW,338,5.8,5.8,24,0.00,CLR,,0.00,WeatherDisplay:10.37,2013-07-15 07:00:00,
2013-07-15 10:02:00,88.3,47.0,29.68,NW,315,10.4,10.4,24,0.00,CLR,,0.00,WeatherDisplay:10.37,2013-07-15 07:02:00,
2013-07-15 10:03:00,88.3,47.0,29.68,NW,315,8.1,8.1,24,0.00,CLR,,0.00,WeatherDisplay:10.37,2013-07-15 07:03:00,
2013-07-15 10:04:00,88.7,47.3,29.68,WNW,292,8.1,8.1,24,0.00,CLR,,0.00,WeatherDisplay:10.37,2013-07-15 07:04:00,
2013-07-15 10:05:00,88.5,47.1,29.68,WNW,292,5.8,5.8,24,0.00,CLR,,0.00,WeatherDisplay:10.37,2013-07-15 07:05:00,
2013-07-15 10:07:00,88.9,47.4,29.68,WNW,292,7.1,7.1,24,0.00,CLR,,0.00,WeatherDisplay:10.37,2013-07-15 07:07:00,
2013-07-15 10:09:00,88.5,47.1,29.65,NNW,338,12.7,12.7,24,0.00,CLR,,0.00,WeatherDisplay:10.37,2013-07-15 07:09:00,
2013-07-15 10:10:00,88.5,47.1,29.65,NNW,338,12.7,12.7,24,0.00,CLR,,0.00,WeatherDisplay:10.37,2013-07-15 07:10:00,
2013-07-15 10:12:00,89.1,47.6,29.65,NW,315,5.8,5.8,24,0.00,CLR,,0.00,WeatherDisplay:10.37,2013-07-15 07:12:00,
2013-07-15 10:14:00,88.9,47.4,29.65,North,0,10.4,10.4,24,0.00,CLR,,0.00,WeatherDisplay:10.37,2013-07-15 07:14:00,
2013-07-15 10:15:00,88.7,47.3,29.65,NNW,338,8.7,8.7,24,0.00,CLR,,0.00,WeatherDisplay:10.37,2013-07-15 07:15:00,
2013-07-15 10:17:00,88.9,47.4,29.65,NNW,338,9.2,9.2,24,0.00,CLR,,0.00,WeatherDisplay:10.37,2013-07-15 07:17:00,
2013-07-15 10:19:00,88.9,47.4,29.65,North,0,11.5,11.5,24,0.00,CLR,,0.00,WeatherDisplay:10.37,2013-07-15 07:19:00,
2013-07-15 10:20:00,88.7,47.3,29.65,NNW,338,10.4,10.4,24,0.00,CLR,,0.00,WeatherDisplay:10.37,2013-07-15 07:20:00,
2013-07-15 10:21:00,88.7,47.3,29.65,NNW,338,10.4,10.4,24,0.00,CLR,,0.00,WeatherDisplay:10.37,2013-07-15 07:21:00,
2013-07-15 10:22:00,88.5,47.1,29.65,NNW,338,10.5,10.5,24,0.00,CLR,,0.00,WeatherDisplay:10.37,2013-07-15 07:22:00,
2013-07-15 10:24:00,88.7,47.3,29.68,NW,315,13.8,13.8,24,0.00,CLR,,0.00,WeatherDisplay:10.37,2013-07-15 07:24:00,
2013-07-15 10:25:00,88.7,47.3,29.68,NNW,338,9.2,9.2,24,0.00,CLR,,0.00,WeatherDisplay:10.37,2013-07-15 07:25:00,
2013-07-15 10:26:00,88.7,47.3,29.68,NNW,338,9.2,9.2,24,0.00,CLR,,0.00,WeatherDisplay:10.37,2013-07-15 07:26:00,
2013-07-15 10:27:00,88.5,47.1,29.68,NNW,338,10.7,10.7,24,0.00,CLR,,0.00,WeatherDisplay:10.37,2013-07-15 07:27:00,
2013-07-15 10:28:00,88.5,47.1,29.68,North,0,10.4,10.4,24,0.00,CLR,,0.00,WeatherDisplay:10.37,2013-07-15 07:28:00,
2013-07-15 10:30:00,88.9,47.4,29.68,North,0,8.1,8.1,24,0.00,CLR,,0.00,WeatherDisplay:10.37,2013-07-15 07:30:00,
2013-07-15 10:31:00,89.2,47.7,29.68,NNW,338,6.0,6.0,24,0.00,CLR,,0.00,WeatherDisplay:10.37,2013-07-15 07:31:00,
2013-07-15 10:33:00,89.6,46.9,29.68,NW,315,8.1,8.1,23,0.00,CLR,,0.00,WeatherDisplay:10.37,2013-07-15 07:33:00,
2013-07-15 10:34:00,89.6,46.9,29.68,NNW,338,8.1,8.1,23,0.00,CLR,,0.00,WeatherDisplay:10.37,2013-07-15 07:34:00,
2013-07-15 10:35:00,90.0,47.2,29.68,NNW,338,5.9,5.9,23,0.00,CLR,,0.00,WeatherDisplay:10.37,2013-07-15 07:35:00,
2013-07-15 10:36:00,90.0,47.2,29.68,NW,315,6.9,6.9,23,0.00,CLR,,0.00,WeatherDisplay:10.37,2013-07-15 07:36:00,
2013-07-15 10:38:00,90.0,47.2,29.65,NW,315,7.1,7.1,23,0.00,CLR,,0.00,WeatherDisplay:10.37,2013-07-15 07:38:00,
2013-07-15 10:39:00,90.0,47.2,29.65,West,270,6.9,6.9,23,0.00,CLR,,0.00,WeatherDisplay:10.37,2013-07-15 07:39:00,
2013-07-15 10:40:00,90.0,47.2,29.65,NW,315,6.9,7.1,23,0.00,CLR,,0.00,WeatherDisplay:10.37,2013-07-15 07:40:00,
2013-07-15 10:41:00,89.8,47.0,29.65,NW,315,8.1,8.1,23,0.00,CLR,,0.00,WeatherDisplay:10.37,2013-07-15 07:41:00,
2013-07-15 10:43:00,89.8,47.0,29.65,WNW,292,10.4,10.4,23,0.00,CLR,,0.00,WeatherDisplay:10.37,2013-07-15 07:43:00,
2013-07-15 10:44:00,90.0,47.2,29.65,NNE,22,8.1,8.1,23,0.00,CLR,,0.00,WeatherDisplay:10.37,2013-07-15 07:44:00,
2013-07-15 10:45:00,89.8,47.0,29.65,NNW,338,12.3,12.3,23,0.00,CLR,,0.00,WeatherDisplay:10.37,2013-07-15 07:45:00,
2013-07-15 10:46:00,89.4,47.9,29.65,NNE,22,12.7,12.7,24,0.00,CLR,,0.00,WeatherDisplay:10.37,2013-07-15 07:46:00,
2013-07-15 10:48:00,89.1,47.6,29.65,NNW,338,10.4,10.4,24,0.00,CLR,,0.00,WeatherDisplay:10.37,2013-07-15 07:48:00,
2013-07-15 10:50:00,88.9,47.4,29.65,North,0,10.4,10.4,24,0.00,CLR,,0.00,WeatherDisplay:10.37,2013-07-15 07:50:00,
2013-07-15 10:51:00,89.2,47.7,29.65,NNE,22,10.4,10.4,24,0.00,CLR,,0.00,WeatherDisplay:10.37,2013-07-15 07:51:00,
2013-07-15 10:52:00,89.6,46.9,29.65,NNW,338,8.1,8.1,23,0.00,CLR,,0.00,WeatherDisplay:10.37,2013-07-15 07:52:00,
2013-07-15 10:53:00,89.2,47.7,29.68,NNW,338,9.2,9.2,24,0.00,CLR,,0.00,WeatherDisplay:10.37,2013-07-15 07:53:00,
2013-07-15 10:55:00,89.6,46.9,29.68,NNW,338,8.7,8.7,23,0.00,CLR,,0.00,WeatherDisplay:10.37,2013-07-15 07:55:00,
2013-07-15 10:56:00,89.6,46.9,29.68,NNW,338,9.2,9.2,23,0.00,CLR,,0.00,WeatherDisplay:10.37,2013-07-15 07:56:00,
2013-07-15 10:57:00,89.6,46.9,29.68,WNW,292,9.2,9.2,23,0.00,CLR,,0.00,WeatherDisplay:10.37,2013-07-15 07:57:00,
2013-07-15 10:58:00,89.8,47.0,29.68,NW,315,9.2,9.2,23,0.00,CLR,,0.00,WeatherDisplay:10.37,2013-07-15 07:58:00,
2013-07-15 11:00:00,90.3,47.5,29.68,NNW,338,8.5,8.5,23,0.00,CLR,,0.00,WeatherDisplay:10.37,2013-07-15 08:00:00,
2013-07-15 11:01:00,90.1,47.3,29.68,NW,315,9.2,9.2,23,0.00,CLR,,0.00,WeatherDisplay:10.37,2013-07-15 08:01:00,
2013-07-15 11:02:00,90.1,47.3,29.68,NNE,22,9.2,9.2,23,0.00,CLR,,0.00,WeatherDisplay:10.37,2013-07-15 08:02:00,
2013-07-15 11:03:00,90.7,47.8,29.68,NNW,338,8.1,8.1,23,0.00,CLR,,0.00,WeatherDisplay:10.37,2013-07-15 08:03:00,
2013-07-15 11:05:00,91.0,48.1,29.68,NW,315,5.8,5.8,23,0.00,CLR,,0.00,WeatherDisplay:10.37,2013-07-15 08:05:00,
2013-07-15 11:06:00,91.2,48.2,29.68,North,0,6.9,6.9,23,0.00,CLR,,0.00,WeatherDisplay:10.37,2013-07-15 08:06:00,
2013-07-15 11:07:00,91.2,48.2,29.68,NNE,22,6.9,6.9,23,0.00,CLR,,0.00,WeatherDisplay:10.37,2013-07-15 08:07:00,
2013-07-15 11:08:00,91.4,48.4,29.68,NNW,338,9.2,9.2,23,0.00,CLR,,0.00,WeatherDisplay:10.37,2013-07-15 08:08:00,
2013-07-15 11:10:00,90.5,47.6,29.68,NNW,338,15.0,15.0,23,0.00,CLR,,0.00,WeatherDisplay:10.37,2013-07-15 08:10:00,
2013-07-15 11:11:00,90.9,47.9,29.68,NNW,338,15.0,15.0,23,0.00,CLR,,0.00,WeatherDisplay:10.37,2013-07-15 08:11:00,
2013-07-15 11:12:00,90.3,47.5,29.68,West,270,10.4,10.4,23,0.00,CLR,,0.00,WeatherDisplay:10.37,2013-07-15 08:12:00,
2013-07-15 11:13:00,90.5,47.6,29.68,WNW,292,11.5,11.5,23,0.00,CLR,,0.00,WeatherDisplay:10.37,2013-07-15 08:13:00,
2013-07-15 11:14:00,90.5,47.6,29.68,NNW,338,8.1,8.1,23,0.00,CLR,,0.00,WeatherDisplay:10.37,2013-07-15 08:14:00,
2013-07-15 11:15:00,90.1,47.3,29.68,North,0,15.0,15.0,23,0.00,CLR,,0.00,WeatherDisplay:10.37,2013-07-15 08:15:00,
2013-07-15 11:16:00,90.5,47.6,29.68,NNW,338,9.2,9.2,23,0.00,CLR,,0.00,WeatherDisplay:10.37,2013-07-15 08:16:00,
2013-07-15 11:17:00,90.5,47.6,29.68,WNW,292,8.5,8.5,23,0.00,CLR,,0.00,WeatherDisplay:10.37,2013-07-15 08:17:00,
2013-07-15 11:18:00,90.5,47.6,29.68,NNE,22,9.2,9.2,23,0.00,CLR,,0.00,WeatherDisplay:10.37,2013-07-15 08:18:00,
2013-07-15 11:19:00,90.5,47.6,29.68,WNW,292,9.2,9.2,23,0.00,CLR,,0.00,WeatherDisplay:10.37,2013-07-15 08:19:00,
2013-07-15 11:20:00,90.5,47.6,29.68,North,0,10.4,10.4,23,0.00,CLR,,0.00,WeatherDisplay:10.37,2013-07-15 08:20:00,
2013-07-15 11:22:00,90.7,47.8,29.68,NNW,338,10.4,10.4,23,0.00,CLR,,0.00,WeatherDisplay:10.37,2013-07-15 08:22:00,
2013-07-15 11:23:00,90.7,47.8,29.68,NNW,338,8.1,8.1,23,0.00,CLR,,0.00,WeatherDisplay:10.37,2013-07-15 08:23:00,
2013-07-15 11:24:00,91.0,48.1,29.65,NNW,338,8.1,8.1,23,0.00,CLR,,0.00,WeatherDisplay:10.37,2013-07-15 08:24:00,
2013-07-15 11:25:00,91.4,48.4,29.65,NNW,338,5.8,5.8,23,0.00,CLR,,0.00,WeatherDisplay:10.37,2013-07-15 08:25:00,
2013-07-15 11:27:00,91.8,48.7,29.65,NW,315,7.6,7.6,23,0.00,CLR,,0.00,WeatherDisplay:10.37,2013-07-15 08:27:00,
2013-07-15 11:28:00,91.2,48.2,29.65,NNW,338,8.1,8.1,23,0.00,CLR,,0.00,WeatherDisplay:10.37,2013-07-15 08:28:00,
2013-07-15 11:29:00,91.6,48.5,29.65,WNW,292,8.1,8.1,23,0.00,CLR,,0.00,WeatherDisplay:10.37,2013-07-15 08:29:00,
2013-07-15 11:31:00,91.0,48.1,29.65,NNW,338,11.5,11.5,23,0.00,CLR,,0.00,WeatherDisplay:10.37,2013-07-15 08:31:00,
2013-07-15 11:32:00,91.0,48.1,29.65,NNW,338,11.5,11.5,23,0.00,CLR,,0.00,WeatherDisplay:10.37,2013-07-15 08:32:00,
2013-07-15 11:33:00,91.2,48.2,29.65,NNE,22,10.4,10.4,23,0.00,CLR,,0.00,WeatherDisplay:10.37,2013-07-15 08:33:00,
2013-07-15 11:35:00,91.2,48.2,29.65,NNE,22,12.3,12.3,23,0.00,CLR,,0.00,WeatherDisplay:10.37,2013-07-15 08:35:00,
2013-07-15 11:36:00,90.9,47.9,29.65,NE,45,12.7,12.7,23,0.00,CLR,,0.00,WeatherDisplay:10.37,2013-07-15 08:36:00,
2013-07-15 11:37:00,90.9,47.9,29.65,NNE,22,10.4,10.4,23,0.00,CLR,,0.00,WeatherDisplay:10.37,2013-07-15 08:37:00,
2013-07-15 11:38:00,90.9,47.9,29.65,NNW,338,5.9,5.9,23,0.00,CLR,,0.00,WeatherDisplay:10.37,2013-07-15 08:38:00,
2013-07-15 11:40:00,90.9,47.9,29.65,WNW,292,10.4,10.4,23,0.00,CLR,,0.00,WeatherDisplay:10.37,2013-07-15 08:40:00,
2013-07-15 11:41:00,91.0,48.1,29.65,NNW,338,10.4,10.4,23,0.00,CLR,,0.00,WeatherDisplay:10.37,2013-07-15 08:41:00,
2013-07-15 11:42:00,91.0,48.1,29.65,NNE,22,9.2,9.2,23,0.00,CLR,,0.00,WeatherDisplay:10.37,2013-07-15 08:42:00,
2013-07-15 11:43:00,91.8,48.7,29.65,NNW,338,5.8,5.8,23,0.00,CLR,,0.00,WeatherDisplay:10.37,2013-07-15 08:43:00,
2013-07-15 11:44:00,91.8,48.7,29.65,NNW,338,5.8,5.8,23,0.00,CLR,,0.00,WeatherDisplay:10.37,2013-07-15 08:44:00,
2013-07-15 11:45:00,91.0,48.1,29.65,WNW,292,10.4,10.4,23,0.00,CLR,,0.00,WeatherDisplay:10.37,2013-07-15 08:45:00,
2013-07-15 11:46:00,90.9,47.9,29.65,North,0,10.4,10.4,23,0.00,CLR,,0.00,WeatherDisplay:10.37,2013-07-15 08:46:00,
2013-07-15 11:47:00,91.4,48.4,29.65,North,0,10.4,10.4,23,0.00,CLR,,0.00,WeatherDisplay:10.37,2013-07-15 08:47:00,
2013-07-15 11:48:00,91.9,48.8,29.65,NNE,22,8.1,8.1,23,0.00,CLR,,0.00,WeatherDisplay:10.37,2013-07-15 08:48:00,
2013-07-15 11:49:00,91.9,48.8,29.65,NNE,22,8.1,8.1,23,0.00,CLR,,0.00,WeatherDisplay:10.37,2013-07-15 08:49:00,
2013-07-15 11:50:00,91.9,48.8,29.65,NNW,338,8.1,8.1,23,0.00,CLR,,0.00,WeatherDisplay:10.37,2013-07-15 08:50:00,
2013-07-15 11:51:00,91.4,48.4,29.65,NE,45,10.0,10.0,23,0.00,CLR,,0.00,WeatherDisplay:10.37,2013-07-15 08:51:00,
2013-07-15 11:53:00,91.6,48.5,29.65,North,0,9.2,9.2,23,0.00,CLR,,0.00,WeatherDisplay:10.37,2013-07-15 08:53:00,
2013-07-15 11:54:00,91.8,48.7,29.65,NNW,338,9.2,9.2,23,0.00,CLR,,0.00,WeatherDisplay:10.37,2013-07-15 08:54:00,
2013-07-15 11:55:00,91.6,48.5,29.65,NNE,22,9.2,9.2,23,0.00,CLR,,0.00,WeatherDisplay:10.37,2013-07-15 08:55:00,
2013-07-15 11:57:00,91.8,48.7,29.65,NNW,338,10.4,10.4,23,0.00,CLR,,0.00,WeatherDisplay:10.37,2013-07-15 08:57:00,
2013-07-15 11:58:00,91.6,48.5,29.65,NNE,22,10.4,10.4,23,0.00,CLR,,0.00,WeatherDisplay:10.37,2013-07-15 08:58:00,
2013-07-15 11:59:00,91.6,48.5,29.65,NNE,22,4.6,4.6,23,0.00,CLR,,0.00,WeatherDisplay:10.37,2013-07-15 08:59:00,
2013-07-15 12:01:00,92.3,49.1,29.65,SW,225,10.4,10.4,23,0.00,CLR,,0.00,WeatherDisplay:10.37,2013-07-15 09:01:00,
2013-07-15 12:02:00,92.1,49.0,29.65,North,0,8.7,8.7,23,0.00,CLR,,0.00,WeatherDisplay:10.37,2013-07-15 09:02:00,
2013-07-15 12:04:00,91.8,48.7,29.65,WNW,292,10.4,10.4,23,0.00,CLR,,0.00,WeatherDisplay:10.37,2013-07-15 09:04:00,
2013-07-15 12:06:00,92.1,49.0,29.65,NNW,338,6.9,6.9,23,0.00,CLR,,0.00,WeatherDisplay:10.37,2013-07-15 09:06:00,
2013-07-15 12:07:00,92.1,49.0,29.65,NNW,338,6.9,6.9,23,0.00,CLR,,0.00,WeatherDisplay:10.37,2013-07-15 09:07:00,
2013-07-15 12:09:00,92.7,49.4,29.65,NNW,338,6.2,6.2,23,0.00,CLR,,0.00,WeatherDisplay:10.37,2013-07-15 09:09:00,
2013-07-15 12:11:00,93.0,49.7,29.65,North,0,6.9,6.9,23,0.00,CLR,,0.00,WeatherDisplay:10.37,2013-07-15 09:11:00,
2013-07-15 12:13:00,92.8,49.6,29.65,NNW,338,10.4,10.4,23,0.00,CLR,,0.00,WeatherDisplay:10.37,2013-07-15 09:13:00,
2013-07-15 12:14:00,93.0,49.7,29.65,NNW,338,10.4,10.4,23,0.00,CLR,,0.00,WeatherDisplay:10.37,2013-07-15 09:14:00,
2013-07-15 12:15:00,92.3,49.1,29.65,North,0,10.4,10.4,23,0.00,CLR,,0.00,WeatherDisplay:10.37,2013-07-15 09:15:00,
2013-07-15 12:16:00,92.8,49.6,29.65,North,0,10.4,10.4,23,0.00,CLR,,0.00,WeatherDisplay:10.37,2013-07-15 09:16:00,
2013-07-15 12:18:00,93.4,48.9,29.65,NNW,338,6.9,6.9,22,0.00,CLR,,0.00,WeatherDisplay:10.37,2013-07-15 09:18:00,
2013-07-15 12:19:00,93.4,48.9,29.65,North,0,6.9,6.9,22,0.00,CLR,,0.00,WeatherDisplay:10.37,2013-07-15 09:19:00,
2013-07-15 12:20:00,93.4,48.9,29.65,North,351,6.0,10.0,22,0.00,CLR,,0.00,WeatherDisplay:10.37,2013-07-15 09:20:00,
2013-07-15 12:21:00,93.6,49.0,29.65,West,270,4.6,4.6,22,0.00,CLR,,0.00,WeatherDisplay:10.37,2013-07-15 09:21:00,
2013-07-15 12:23:00,93.9,49.3,29.65,NNW,338,5.8,5.8,22,0.00,CLR,,0.00,WeatherDisplay:10.37,2013-07-15 09:23:00,
2013-07-15 12:24:00,93.7,49.1,29.65,NNW,338,9.8,9.8,22,0.00,CLR,,0.00,WeatherDisplay:10.37,2013-07-15 09:24:00,
2013-07-15 12:25:00,93.2,48.7,29.65,NNW,338,11.5,11.5,22,0.00,CLR,,0.00,WeatherDisplay:10.37,2013-07-15 09:25:00,
2013-07-15 12:27:00,93.4,48.9,29.65,NW,315,5.8,5.8,22,0.00,CLR,,0.00,WeatherDisplay:10.37,2013-07-15 09:27:00,
2013-07-15 12:28:00,94.3,49.6,29.65,NNE,22,4.6,4.6,22,0.00,CLR,,0.00,WeatherDisplay:10.37,2013-07-15 09:28:00,
2013-07-15 12:29:00,94.3,49.6,29.65,NW,315,4.7,4.7,22,0.00,CLR,,0.00,WeatherDisplay:10.37,2013-07-15 09:29:00,
2013-07-15 12:30:00,94.3,49.6,29.65,NNW,338,8.1,8.1,22,0.00,CLR,,0.00,WeatherDisplay:10.37,2013-07-15 09:30:00,
2013-07-15 12:32:00,94.1,49.4,29.65,North,0,6.2,6.2,22,0.00,CLR,,0.00,WeatherDisplay:10.37,2013-07-15 09:32:00,
2013-07-15 12:34:00,93.7,49.1,29.65,NNW,338,10.2,10.2,22,0.00,CLR,,0.00,WeatherDisplay:10.37,2013-07-15 09:34:00,
2013-07-15 12:35:00,93.4,48.9,29.65,NNE,22,10.4,10.4,22,0.00,CLR,,0.00,WeatherDisplay:10.37,2013-07-15 09:35:00,
2013-07-15 12:36:00,92.8,49.6,29.65,NW,315,10.4,10.4,23,0.00,CLR,,0.00,WeatherDisplay:10.37,2013-07-15 09:36:00,
2013-07-15 12:37:00,92.8,49.6,29.65,NE,45,10.4,10.4,23,0.00,CLR,,0.00,WeatherDisplay:10.37,2013-07-15 09:37:00,
2013-07-15 12:39:00,93.7,49.1,29.65,West,270,7.4,7.4,22,0.00,CLR,,0.00,WeatherDisplay:10.37,2013-07-15 09:39:00,
2013-07-15 12:40:00,93.7,49.1,29.65,NW,315,9.2,9.2,22,0.00,CLR,,0.00,WeatherDisplay:10.37,2013-07-15 09:40:00,
2013-07-15 12:41:00,93.7,49.1,29.65,North,0,5.8,5.8,22,0.00,CLR,,0.00,WeatherDisplay:10.37,2013-07-15 09:41:00,
2013-07-15 12:42:00,94.6,49.9,29.65,NW,315,5.8,5.8,22,0.00,CLR,,0.00,WeatherDisplay:10.37,2013-07-15 09:42:00,
2013-07-15 12:44:00,95.2,50.3,29.65,WNW,292,5.4,5.4,22,0.00,CLR,,0.00,WeatherDisplay:10.37,2013-07-15 09:44:00,
2013-07-15 12:45:00,95.5,50.6,29.65,NNW,338,5.8,5.8,22,0.00,CLR,,0.00,WeatherDisplay:10.37,2013-07-15 09:45:00,
2013-07-15 12:46:00,95.5,50.6,29.65,WSW,248,5.8,5.8,22,0.00,CLR,,0.00,WeatherDisplay:10.37,2013-07-15 09:46:00,
2013-07-15 12:47:00,96.3,51.2,29.65,West,270,3.8,3.8,22,0.00,CLR,,0.00,WeatherDisplay:10.37,2013-07-15 09:47:00,
2013-07-15 12:49:00,96.3,51.2,29.65,West,270,4.6,4.6,22,0.00,CLR,,0.00,WeatherDisplay:10.37,2013-07-15 09:49:00,
2013-07-15 12:50:00,95.9,50.9,29.65,WSW,248,3.8,3.8,22,0.00,CLR,,0.00,WeatherDisplay:10.37,2013-07-15 09:50:00,
2013-07-15 12:51:00,95.5,50.6,29.65,NNW,338,3.5,4.9,22,0.00,CLR,,0.00,WeatherDisplay:10.37,2013-07-15 09:51:00,
2013-07-15 12:53:00,95.7,50.8,29.65,NW,315,5.8,6.0,22,0.00,CLR,,0.00,WeatherDisplay:10.37,2013-07-15 09:53:00,
2013-07-15 12:55:00,96.1,51.1,29.65,WNW,292,5.8,5.8,22,0.00,CLR,,0.00,WeatherDisplay:10.37,2013-07-15 09:55:00,
2013-07-15 12:56:00,95.4,50.5,29.65,North,0,10.4,10.4,22,0.00,CLR,,0.00,WeatherDisplay:10.37,2013-07-15 09:56:00,
2013-07-15 12:57:00,95.4,50.5,29.65,North,0,10.4,10.4,22,0.00,CLR,,0.00,WeatherDisplay:10.37,2013-07-15 09:57:00,
2013-07-15 12:58:00,94.6,49.9,29.65,WNW,292,6.9,6.9,22,0.00,CLR,,0.00,WeatherDisplay:10.37,2013-07-15 09:58:00,
2013-07-15 13:00:00,94.5,49.7,29.65,NNE,22,8.1,8.1,22,0.00,CLR,,0.00,WeatherDisplay:10.37,2013-07-15 10:00:00,
2013-07-15 13:01:00,94.8,50.0,29.65,NNW,338,4.6,4.6,22,0.00,CLR,,0.00,WeatherDisplay:10.37,2013-07-15 10:01:00,
2013-07-15 13:02:00,94.8,50.0,29.65,ENE,68,5.8,5.8,22,0.00,CLR,,0.00,WeatherDisplay:10.37,2013-07-15 10:02:00,
2013-07-15 13:03:00,95.2,50.3,29.65,NNW,338,3.5,3.5,22,0.00,CLR,,0.00,WeatherDisplay:10.37,2013-07-15 10:03:00,
2013-07-15 13:05:00,95.0,50.2,29.65,NNE,22,9.2,9.2,22,0.00,CLR,,0.00,WeatherDisplay:10.37,2013-07-15 10:05:00,
2013-07-15 13:06:00,95.0,50.2,29.65,NNE,22,7.8,7.8,22,0.00,CLR,,0.00,WeatherDisplay:10.37,2013-07-15 10:06:00,
2013-07-15 13:07:00,94.8,50.0,29.65,NNE,22,5.8,5.8,22,0.00,CLR,,0.00,WeatherDisplay:10.37,2013-07-15 10:07:00,
2013-07-15 13:09:00,95.0,50.2,29.62,NE,45,5.8,5.8,22,0.00,CLR,,0.00,WeatherDisplay:10.37,2013-07-15 10:09:00,
2013-07-15 13:10:00,94.8,50.0,29.62,NNW,338,5.8,5.8,22,0.00,CLR,,0.00,WeatherDisplay:10.37,2013-07-15 10:10:00,
2013-07-15 13:11:00,94.8,50.0,29.62,NNW,338,2.3,2.3,22,0.00,CLR,,0.00,WeatherDisplay:10.37,2013-07-15 10:11:00,
2013-07-15 13:12:00,95.4,50.5,29.62,WNW,292,3.1,3.1,22,0.00,CLR,,0.00,WeatherDisplay:10.37,2013-07-15 10:12:00,
2013-07-15 13:14:00,96.1,51.1,29.62,WSW,248,3.6,3.6,22,0.00,CLR,,0.00,WeatherDisplay:10.37,2013-07-15 10:14:00,
2013-07-15 13:16:00,96.6,51.5,29.62,WSW,248,5.8,5.8,22,0.00,CLR,,0.00,WeatherDisplay:10.37,2013-07-15 10:16:00,
2013-07-15 13:17:00,97.0,51.8,29.62,South,180,3.5,3.5,22,0.00,CLR,,0.00,WeatherDisplay:10.37,2013-07-15 10:17:00,
2013-07-15 13:19:00,97.3,52.1,29.62,NW,315,4.6,4.6,22,0.00,CLR,,0.00,WeatherDisplay:10.37,2013-07-15 10:19:00,
2013-07-15 13:21:00,96.1,51.1,29.62,NNW,338,3.8,3.8,22,0.00,CLR,,0.00,WeatherDisplay:10.37,2013-07-15 10:21:00,
2013-07-15 13:22:00,96.3,51.2,29.62,WSW,248,3.5,3.5,22,0.00,CLR,,0.00,WeatherDisplay:10.37,2013-07-15 10:22:00,
2013-07-15 13:23:00,96.3,51.2,29.62,SW,225,4.6,4.6,22,0.00,CLR,,0.00,WeatherDisplay:10.37,2013-07-15 10:23:00,
2013-07-15 13:24:00,95.5,50.6,29.62,SSW,202,5.9,5.9,22,0.00,CLR,,0.00,WeatherDisplay:10.37,2013-07-15 10:24:00,
2013-07-15 13:26:00,94.5,49.7,29.62,SSW,202,5.8,5.8,22,0.00,CLR,,0.00,WeatherDisplay:10.37,2013-07-15 10:26:00,
2013-07-15 13:27:00,94.5,49.7,29.62,SSW,202,6.9,6.9,22,0.00,CLR,,0.00,WeatherDisplay:10.37,2013-07-15 10:27:00,
2013-07-15 13:28:00,95.0,50.2,29.62,WSW,248,5.8,5.8,22,0.00,CLR,,0.00,WeatherDisplay:10.37,2013-07-15 10:28:00,
2013-07-15 13:29:00,95.4,50.5,29.62,SSW,202,2.6,2.6,22,0.00,CLR,,0.00,WeatherDisplay:10.37,2013-07-15 10:29:00,
2013-07-15 13:31:00,95.4,50.5,29.62,SSW,202,3.5,3.5,22,0.00,CLR,,0.00,WeatherDisplay:10.37,2013-07-15 10:31:00,
2013-07-15 13:32:00,95.2,50.3,29.62,WSW,248,2.3,2.3,22,0.00,CLR,,0.00,WeatherDisplay:10.37,2013-07-15 10:32:00,
2013-07-15 13:33:00,95.2,50.3,29.62,NE,45,3.6,3.6,22,0.00,CLR,,0.00,WeatherDisplay:10.37,2013-07-15 10:33:00,
2013-07-15 13:34:00,95.2,50.3,29.62,South,180,4.6,4.6,22,0.00,CLR,,0.00,WeatherDisplay:10.37,2013-07-15 10:34:00,
2013-07-15 13:37:00,94.6,49.9,29.62,SSE,158,7.6,7.6,22,0.00,CLR,,0.00,WeatherDisplay:10.37,2013-07-15 10:37:00,
2013-07-15 13:38:00,93.2,48.7,29.62,SW,225,8.1,8.1,22,0.00,CLR,,0.00,WeatherDisplay:10.37,2013-07-15 10:38:00,
2013-07-15 13:39:00,93.0,49.7,29.62,SSE,158,4.6,4.6,23,0.00,CLR,,0.00,WeatherDisplay:10.37,2013-07-15 10:39:00,
2013-07-15 13:42:00,93.2,48.7,29.62,SSE,158,9.2,9.2,22,0.00,CLR,,0.00,WeatherDisplay:10.37,2013-07-15 10:42:00,
2013-07-15 13:43:00,93.4,48.9,29.62,WSW,248,5.8,5.8,22,0.00,CLR,,0.00,WeatherDisplay:10.37,2013-07-15 10:43:00,
2013-07-15 13:44:00,94.1,49.4,29.62,WSW,248,5.8,5.8,22,0.00,CLR,,0.00,WeatherDisplay:10.37,2013-07-15 10:44:00,
2013-07-15 13:47:00,94.3,49.6,29.62,WSW,248,5.8,5.8,22,0.00,CLR,,0.00,WeatherDisplay:10.37,2013-07-15 10:47:00,
2013-07-15 13:48:00,94.3,49.6,29.62,WSW,248,5.8,5.8,22,0.00,CLR,,0.00,WeatherDisplay:10.37,2013-07-15 10:48:00,
2013-07-15 13:49:00,94.3,49.6,29.62,SSE,158,4.6,4.6,22,0.00,CLR,,0.00,WeatherDisplay:10.37,2013-07-15 10:49:00,
2013-07-15 13:52:00,93.9,49.3,29.62,SSW,202,8.5,8.5,22,0.00,CLR,,0.00,WeatherDisplay:10.37,2013-07-15 10:52:00,
2013-07-15 13:53:00,93.9,49.3,29.62,SSW,202,8.1,8.1,22,0.00,CLR,,0.00,WeatherDisplay:10.37,2013-07-15 10:53:00,
2013-07-15 13:54:00,93.6,49.0,29.62,NW,315,6.9,6.9,22,0.00,CLR,,0.00,WeatherDisplay:10.37,2013-07-15 10:54:00,
2013-07-15 13:55:00,93.6,49.0,29.62,SW,222,3.0,9.0,22,0.00,CLR,,0.00,WeatherDisplay:10.37,2013-07-15 10:55:00,
2013-07-15 13:58:00,94.8,50.0,29.62,SSE,158,4.9,4.9,22,0.00,CLR,,0.00,WeatherDisplay:10.37,2013-07-15 10:58:00,
2013-07-15 13:59:00,94.5,49.7,29.62,SSE,158,4.6,4.6,22,0.00,CLR,,0.00,WeatherDisplay:10.37,2013-07-15 10:59:00,
2013-07-15 14:00:00,94.5,49.7,29.62,SSW,202,4.6,4.6,22,0.00,CLR,,0.00,WeatherDisplay:10.37,2013-07-15 11:00:00,
2013-07-15 14:03:00,95.4,50.5,29.62,WSW,248,3.5,3.5,22,0.00,CLR,,0.00,WeatherDisplay:10.37,2013-07-15 11:03:00,
2013-07-15 14:04:00,95.5,50.6,29.62,SSE,158,4.6,4.6,22,0.00,CLR,,0.00,WeatherDisplay:10.37,2013-07-15 11:04:00,
2013-07-15 14:05:00,95.9,50.9,29.62,South,180,4.6,4.6,22,0.00,CLR,,0.00,WeatherDisplay:10.37,2013-07-15 11:05:00,
2013-07-15 14:06:00,96.1,51.1,29.62,SSW,202,3.5,3.5,22,0.00,CLR,,0.00,WeatherDisplay:10.37,2013-07-15 11:06:00,
2013-07-15 14:08:00,96.1,51.1,29.62,WSW,248,3.5,3.5,22,0.00,CLR,,0.00,WeatherDisplay:10.37,2013-07-15 11:08:00,
2013-07-15 14:09:00,96.1,51.1,29.62,SW,225,5.8,5.8,22,0.00,CLR,,0.00,WeatherDisplay:10.37,2013-07-15 11:09:00,
2013-07-15 14:10:00,96.3,51.2,29.62,SSW,202,4.6,4.6,22,0.00,CLR,,0.00,WeatherDisplay:10.37,2013-07-15 11:10:00,
2013-07-15 14:11:00,96.1,51.1,29.62,SSW,202,5.8,5.8,22,0.00,CLR,,0.00,WeatherDisplay:10.37,2013-07-15 11:11:00,
2013-07-15 14:13:00,95.0,50.2,29.62,SSW,202,10.4,10.4,22,0.00,CLR,,0.00,WeatherDisplay:10.37,2013-07-15 11:13:00,
2013-07-15 14:14:00,95.0,50.2,29.62,NE,45,8.1,8.1,22,0.00,CLR,,0.00,WeatherDisplay:10.37,2013-07-15 11:14:00,
2013-07-15 14:15:00,95.0,50.2,29.62,NE,45,3.5,3.5,22,0.00,CLR,,0.00,WeatherDisplay:10.37,2013-07-15 11:15:00,
2013-07-15 14:16:00,95.9,50.9,29.62,South,180,4.3,4.3,22,0.00,CLR,,0.00,WeatherDisplay:10.37,2013-07-15 11:16:00,
2013-07-15 14:18:00,95.4,50.5,29.62,SSE,158,9.2,9.2,22,0.00,CLR,,0.00,WeatherDisplay:10.37,2013-07-15 11:18:00,
2013-07-15 14:19:00,95.2,50.3,29.62,SW,225,5.8,5.8,22,0.00,CLR,,0.00,WeatherDisplay:10.37,2013-07-15 11:19:00,
2013-07-15 14:20:00,94.8,50.0,29.62,SSE,158,6.9,6.9,22,0.00,CLR,,0.00,WeatherDisplay:10.37,2013-07-15 11:20:00,
2013-07-15 14:22:00,94.5,49.7,29.62,SE,135,5.8,5.8,22,0.00,CLR,,0.00,WeatherDisplay:10.37,2013-07-15 11:22:00,
2013-07-15 14:23:00,93.9,49.3,29.62,SSW,202,12.7,12.7,22,0.00,CLR,,0.00,WeatherDisplay:10.37,2013-07-15 11:23:00,
2013-07-15 14:24:00,93.9,49.3,29.62,SW,225,12.7,12.7,22,0.00,CLR,,0.00,WeatherDisplay:10.37,2013-07-15 11:24:00,
2013-07-15 14:25:00,92.8,49.6,29.62,SSE,158,6.2,6.2,23,0.00,CLR,,0.00,WeatherDisplay:10.37,2013-07-15 11:25:00,
2013-07-15 14:27:00,91.2,48.2,29.62,South,180,13.8,13.8,23,0.00,CLR,,0.00,WeatherDisplay:10.37,2013-07-15 11:27:00,
2013-07-15 14:28:00,91.4,48.4,29.62,SSW,202,11.5,11.5,23,0.00,CLR,,0.00,WeatherDisplay:10.37,2013-07-15 11:28:00,
2013-07-15 14:29:00,91.4,48.4,29.62,SSW,202,6.9,6.9,23,0.00,CLR,,0.00,WeatherDisplay:10.37,2013-07-15 11:29:00,
2013-07-15 14:30:00,91.2,48.2,29.62,SW,225,3.5,3.5,23,0.00,CLR,,0.00,WeatherDisplay:10.37,2013-07-15 11:30:00,
2013-07-15 14:32:00,91.8,48.7,29.62,WSW,248,4.6,4.6,23,0.00,CLR,,0.00,WeatherDisplay:10.37,2013-07-15 11:32:00,
2013-07-15 14:34:00,91.8,48.7,29.62,SSW,202,8.1,8.1,23,0.00,CLR,,0.00,WeatherDisplay:10.37,2013-07-15 11:34:00,
2013-07-15 14:35:00,91.4,48.4,29.62,WSW,248,5.8,5.9,23,0.00,CLR,,0.00,WeatherDisplay:10.37,2013-07-15 11:35:00,
2013-07-15 14:38:00,90.9,47.9,29.62,SSW,202,4.6,4.6,23,0.00,CLR,,0.00,WeatherDisplay:10.37,2013-07-15 11:38:00,
2013-07-15 14:39:00,90.9,47.9,29.62,South,180,4.6,4.6,23,0.00,CLR,,0.00,WeatherDisplay:10.37,2013-07-15 11:39:00,
2013-07-15 14:40:00,90.9,47.9,29.62,West,270,5.8,5.8,23,0.00,CLR,,0.00,WeatherDisplay:10.37,2013-07-15 11:40:00,
2013-07-15 14:41:00,90.9,47.9,29.62,WSW,248,3.5,3.5,23,0.00,CLR,,0.00,WeatherDisplay:10.37,2013-07-15 11:41:00,
2013-07-15 14:43:00,91.6,48.5,29.62,South,180,4.6,4.6,23,0.00,CLR,,0.00,WeatherDisplay:10.37,2013-07-15 11:43:00,
2013-07-15 14:44:00,91.6,48.5,29.62,SSE,158,4.6,4.6,23,0.00,CLR,,0.00,WeatherDisplay:10.37,2013-07-15 11:44:00,
2013-07-15 14:45:00,91.2,48.2,29.62,SSW,202,5.8,5.8,23,0.00,CLR,,0.00,WeatherDisplay:10.37,2013-07-15 11:45:00,
2013-07-15 14:46:00,90.9,47.9,29.62,SSE,158,3.5,3.5,23,0.00,CLR,,0.00,WeatherDisplay:10.37,2013-07-15 11:46:00,
2013-07-15 14:49:00,91.8,48.7,29.62,NW,315,1.2,1.4,23,0.00,CLR,,0.00,WeatherDisplay:10.37,2013-07-15 11:49:00,
2013-07-15 14:50:00,91.9,48.8,29.62,West,270,4.6,4.6,23,0.00,CLR,,0.00,WeatherDisplay:10.37,2013-07-15 11:50:00,
2013-07-15 14:51:00,92.3,49.1,29.62,WNW,292,5.4,5.4,23,0.00,CLR,,0.00,WeatherDisplay:10.37,2013-07-15 11:51:00,
2013-07-15 14:54:00,92.7,49.4,29.62,North,0,3.5,3.5,23,0.00,CLR,,0.00,WeatherDisplay:10.37,2013-07-15 11:54:00,
2013-07-15 14:55:00,92.7,49.4,29.62,NNW,338,3.6,3.6,23,0.00,CLR,,0.00,WeatherDisplay:10.37,2013-07-15 11:55:00,
2013-07-15 14:56:00,92.7,49.4,29.62,NNE,22,4.0,4.0,23,0.00,CLR,,0.00,WeatherDisplay:10.37,2013-07-15 11:56:00,
2013-07-15 14:59:00,92.1,49.0,29.62,ENE,68,3.5,3.5,23,0.00,CLR,,0.00,WeatherDisplay:10.37,2013-07-15 11:59:00,
2013-07-15 15:00:00,92.1,49.0,29.62,ENE,68,3.5,3.5,23,0.00,CLR,,0.00,WeatherDisplay:10.37,2013-07-15 12:00:00,
2013-07-15 15:01:00,92.1,49.0,29.62,NNE,22,3.5,3.5,23,0.00,CLR,,0.00,WeatherDisplay:10.37,2013-07-15 12:01:00,
2013-07-15 15:02:00,92.8,49.6,29.62,NW,315,3.1,3.1,23,0.00,CLR,,0.00,WeatherDisplay:10.37,2013-07-15 12:02:00,
2013-07-15 15:04:00,94.5,49.7,29.62,West,270,3.6,3.6,22,0.00,CLR,,0.00,WeatherDisplay:10.37,2013-07-15 12:04:00,
2013-07-15 15:06:00,94.8,50.0,29.62,ESE,112,3.5,3.5,22,0.00,CLR,,0.00,WeatherDisplay:10.37,2013-07-15 12:06:00,
2013-07-15 15:07:00,95.0,50.2,29.62,NNW,338,5.8,5.8,22,0.00,CLR,,0.00,WeatherDisplay:10.37,2013-07-15 12:07:00,
2013-07-15 15:09:00,95.5,50.6,29.62,NNW,338,5.8,5.8,22,0.00,CLR,,0.00,WeatherDisplay:10.37,2013-07-15 12:09:00,
2013-07-15 15:11:00,94.6,49.9,29.62,ESE,112,6.9,6.9,22,0.00,CLR,,0.00,WeatherDisplay:10.37,2013-07-15 12:11:00,
2013-07-15 15:12:00,93.9,49.3,29.62,NNW,338,8.1,8.1,22,0.00,CLR,,0.00,WeatherDisplay:10.37,2013-07-15 12:12:00,
2013-07-15 15:14:00,93.6,49.0,29.62,ENE,68,12.7,12.7,22,0.00,CLR,,0.00,WeatherDisplay:10.37,2013-07-15 12:14:00,
2013-07-15 15:16:00,92.5,49.3,29.62,NE,45,10.4,10.4,23,0.00,CLR,,0.00,WeatherDisplay:10.37,2013-07-15 12:16:00,
2013-07-15 15:17:00,92.5,49.3,29.62,NE,45,10.4,10.4,23,0.00,CLR,,0.00,WeatherDisplay:10.37,2013-07-15 12:17:00,
2013-07-15 15:19:00,91.6,48.5,29.62,ENE,68,12.7,12.7,23,0.00,CLR,,0.00,WeatherDisplay:10.37,2013-07-15 12:19:00,
2013-07-15 15:21:00,90.9,47.9,29.62,ENE,68,11.5,11.5,23,0.00,CLR,,0.00,WeatherDisplay:10.37,2013-07-15 12:21:00,
2013-07-15 15:22:00,91.0,48.1,29.62,ESE,112,10.5,10.5,23,0.00,CLR,,0.00,WeatherDisplay:10.37,2013-07-15 12:22:00,
2013-07-15 15:24:00,91.0,48.1,29.62,East,90,8.1,8.7,23,0.00,CLR,,0.00,WeatherDisplay:10.37,2013-07-15 12:24:00,
2013-07-15 15:25:00,91.2,48.2,29.62,ESE,112,10.4,10.4,23,0.00,CLR,,0.00,WeatherDisplay:10.37,2013-07-15 12:25:00,
2013-07-15 15:26:00,91.0,48.1,29.62,ESE,112,12.7,12.7,23,0.00,CLR,,0.00,WeatherDisplay:10.37,2013-07-15 12:26:00,
2013-07-15 15:27:00,91.6,48.5,29.62,ESE,112,10.4,10.4,23,0.00,CLR,,0.00,WeatherDisplay:10.37,2013-07-15 12:27:00,
2013-07-15 15:30:00,92.5,49.3,29.62,ENE,68,9.7,9.7,23,0.00,CLR,,0.00,WeatherDisplay:10.37,2013-07-15 12:30:00,
2013-07-15 15:31:00,92.5,49.3,29.62,NE,45,9.2,9.2,23,0.00,CLR,,0.00,WeatherDisplay:10.37,2013-07-15 12:31:00,
2013-07-15 15:32:00,92.3,49.1,29.62,ENE,68,10.5,10.5,23,0.00,CLR,,0.00,WeatherDisplay:10.37,2013-07-15 12:32:00,
2013-07-15 15:33:00,92.3,49.1,29.62,NNE,22,8.1,8.1,23,0.00,CLR,,0.00,WeatherDisplay:10.37,2013-07-15 12:33:00,
2013-07-15 15:35:00,91.9,48.8,29.62,East,84,5.0,10.0,23,0.00,CLR,,0.00,WeatherDisplay:10.37,2013-07-15 12:35:00,
2013-07-15 15:36:00,91.9,48.8,29.62,ENE,68,7.6,7.6,23,0.00,CLR,,0.00,WeatherDisplay:10.37,2013-07-15 12:36:00,
2013-07-15 15:38:00,92.1,49.0,29.62,North,0,9.2,9.2,23,0.00,CLR,,0.00,WeatherDisplay:10.37,2013-07-15 12:38:00,
2013-07-15 15:40:00,91.9,48.8,29.59,NE,45,9.2,9.2,23,0.00,CLR,,0.00,WeatherDisplay:10.37,2013-07-15 12:40:00,
2013-07-15 15:41:00,92.1,49.0,29.59,NE,45,8.1,8.1,23,0.00,CLR,,0.00,WeatherDisplay:10.37,2013-07-15 12:41:00,
2013-07-15 15:43:00,92.3,49.1,29.59,East,90,8.1,8.1,23,0.00,CLR,,0.00,WeatherDisplay:10.37,2013-07-15 12:43:00,
2013-07-15 15:45:00,92.5,49.3,29.59,NNE,22,9.2,9.2,23,0.00,CLR,,0.00,WeatherDisplay:10.37,2013-07-15 12:45:00,
2013-07-15 15:46:00,92.7,49.4,29.59,NE,45,6.0,6.0,23,0.00,CLR,,0.00,WeatherDisplay:10.37,2013-07-15 12:46:00,
2013-07-15 15:47:00,92.7,49.4,29.59,NE,45,6.9,6.9,23,0.00,CLR,,0.00,WeatherDisplay:10.37,2013-07-15 12:47:00,
2013-07-15 15:48:00,92.5,49.3,29.59,NNW,338,9.2,9.2,23,0.00,CLR,,0.00,WeatherDisplay:10.37,2013-07-15 12:48:00,
2013-07-15 15:50:00,93.2,48.7,29.59,ENE,68,12.3,12.3,22,0.00,CLR,,0.00,WeatherDisplay:10.37,2013-07-15 12:50:00,
2013-07-15 15:52:00,92.5,49.3,29.59,NNW,338,12.7,12.7,23,0.00,CLR,,0.00,WeatherDisplay:10.37,2013-07-15 12:52:00,
2013-07-15 15:53:00,92.3,49.1,29.62,ENE,68,13.8,13.8,23,0.00,CLR,,0.00,WeatherDisplay:10.37,2013-07-15 12:53:00,
2013-07-15 15:54:00,92.3,49.1,29.62,East,90,13.8,13.8,23,0.00,CLR,,0.00,WeatherDisplay:10.37,2013-07-15 12:54:00,
2013-07-15 15:56:00,93.0,49.7,29.62,ENE,68,8.1,8.1,23,0.00,CLR,,0.00,WeatherDisplay:10.37,2013-07-15 12:56:00,
2013-07-15 15:57:00,92.7,49.4,29.62,NE,45,9.2,9.2,23,0.00,CLR,,0.00,WeatherDisplay:10.37,2013-07-15 12:57:00,
2013-07-15 15:58:00,92.5,49.3,29.62,NNE,22,9.2,9.2,23,0.00,CLR,,0.00,WeatherDisplay:10.37,2013-07-15 12:58:00,
2013-07-15 15:59:00,92.5,49.3,29.62,North,0,9.2,9.2,23,0.00,CLR,,0.00,WeatherDisplay:10.37,2013-07-15 12:59:00,
2013-07-15 16:01:00,93.0,49.7,29.62,NNE,22,8.1,8.1,23,0.00,CLR,,0.00,WeatherDisplay:10.37,2013-07-15 13:01:00,
2013-07-15 16:02:00,93.0,49.7,29.62,NNE,22,10.4,10.4,23,0.00,CLR,,0.00,WeatherDisplay:10.37,2013-07-15 13:02:00,
2013-07-15 16:04:00,93.4,48.9,29.62,ENE,68,8.1,8.1,22,0.00,CLR,,0.00,WeatherDisplay:10.37,2013-07-15 13:04:00,
2013-07-15 16:07:00,93.2,48.7,29.62,NNW,338,8.1,8.1,22,0.00,CLR,,0.00,WeatherDisplay:10.37,2013-07-15 13:07:00,
2013-07-15 16:09:00,93.0,49.7,29.65,NE,45,15.0,15.0,23,0.00,CLR,,0.00,WeatherDisplay:10.37,2013-07-15 13:09:00,
2013-07-15 16:12:00,92.3,49.1,29.65,NE,45,8.1,8.1,23,0.00,CLR,,0.00,WeatherDisplay:10.37,2013-07-15 13:12:00,
2013-07-15 16:13:00,92.5,49.3,29.65,North,0,8.1,8.1,23,0.00,CLR,,0.00,WeatherDisplay:10.37,2013-07-15 13:13:00,
2013-07-15 16:14:00,92.8,49.6,29.65,NNE,22,6.9,6.9,23,0.00,CLR,,0.00,WeatherDisplay:10.37,2013-07-15 13:14:00,
2013-07-15 16:17:00,92.1,49.0,29.65,ESE,112,12.7,12.7,23,0.00,CLR,,0.00,WeatherDisplay:10.37,2013-07-15 13:17:00,
2013-07-15 16:18:00,92.1,49.0,29.65,ENE,68,12.7,12.7,23,0.00,CLR,,0.00,WeatherDisplay:10.37,2013-07-15 13:18:00,
2013-07-15 16:19:00,91.9,48.8,29.65,ENE,68,9.2,9.2,23,0.00,CLR,,0.00,WeatherDisplay:10.37,2013-07-15 13:19:00,
2013-07-15 16:22:00,91.9,48.8,29.65,ENE,68,8.1,8.1,23,0.00,CLR,,0.00,WeatherDisplay:10.37,2013-07-15 13:22:00,
2013-07-15 16:23:00,92.1,49.0,29.65,East,90,9.2,9.2,23,0.00,CLR,,0.00,WeatherDisplay:10.37,2013-07-15 13:23:00,
2013-07-15 16:24:00,91.9,48.8,29.62,NNE,22,17.0,17.0,23,0.00,CLR,,0.00,WeatherDisplay:10.37,2013-07-15 13:24:00,
2013-07-15 16:25:00,91.9,48.8,29.62,NNE,22,17.0,17.0,23,0.00,CLR,,0.00,WeatherDisplay:10.37,2013-07-15 13:25:00,
2013-07-15 16:27:00,91.2,48.2,29.62,NNE,22,13.8,13.8,23,0.00,CLR,,0.00,WeatherDisplay:10.37,2013-07-15 13:27:00,
2013-07-15 16:28:00,91.4,48.4,29.62,North,0,15.0,15.0,23,0.00,CLR,,0.00,WeatherDisplay:10.37,2013-07-15 13:28:00,
2013-07-15 16:29:00,91.2,48.2,29.62,NE,45,15.0,15.0,23,0.00,CLR,,0.00,WeatherDisplay:10.37,2013-07-15 13:29:00,
2013-07-15 16:30:00,91.2,48.2,29.62,ENE,68,12.7,12.7,23,0.00,CLR,,0.00,WeatherDisplay:10.37,2013-07-15 13:30:00,
2013-07-15 16:32:00,91.2,48.2,29.62,NNE,22,10.4,10.4,23,0.00,CLR,,0.00,WeatherDisplay:10.37,2013-07-15 13:32:00,
2013-07-15 16:33:00,91.2,48.2,29.62,ENE,68,11.5,11.5,23,0.00,CLR,,0.00,WeatherDisplay:10.37,2013-07-15 13:33:00,
2013-07-15 16:34:00,91.2,48.2,29.62,NNE,22,11.5,11.5,23,0.00,CLR,,0.00,WeatherDisplay:10.37,2013-07-15 13:34:00,
2013-07-15 16:35:00,91.4,48.4,29.62,North,0,11.5,11.5,23,0.00,CLR,,0.00,WeatherDisplay:10.37,2013-07-15 13:35:00,
2013-07-15 16:38:00,91.8,48.7,29.62,NNW,338,10.7,10.7,23,0.00,CLR,,0.00,WeatherDisplay:10.37,2013-07-15 13:38:00,
2013-07-15 16:39:00,91.8,48.7,29.62,NNE,22,10.4,10.4,23,0.00,CLR,,0.00,WeatherDisplay:10.37,2013-07-15 13:39:00,
2013-07-15 16:40:00,91.6,48.5,29.62,NE,45,17.6,17.6,23,0.00,CLR,,0.00,WeatherDisplay:10.37,2013-07-15 13:40:00,
2013-07-15 16:43:00,90.9,47.9,29.62,ENE,68,15.0,15.0,23,0.00,CLR,,0.00,WeatherDisplay:10.37,2013-07-15 13:43:00,
2013-07-15 16:44:00,90.7,47.8,29.62,ENE,68,15.0,15.0,23,0.00,CLR,,0.00,WeatherDisplay:10.37,2013-07-15 13:44:00,
2013-07-15 16:45:00,90.5,47.6,29.62,NNE,22,15.0,15.0,23,0.00,CLR,,0.00,WeatherDisplay:10.37,2013-07-15 13:45:00,
2013-07-15 16:48:00,90.3,47.5,29.62,NNE,22,13.8,13.8,23,0.00,CLR,,0.00,WeatherDisplay:10.37,2013-07-15 13:48:00,
2013-07-15 16:49:00,90.0,47.2,29.62,NNE,22,15.2,15.2,23,0.00,CLR,,0.00,WeatherDisplay:10.37,2013-07-15 13:49:00,
2013-07-15 16:50:00,89.8,47.0,29.62,North,0,17.3,17.3,23,0.00,CLR,,0.00,WeatherDisplay:10.37,2013-07-15 13:50:00,
2013-07-15 16:54:00,90.0,47.2,29.62,NNE,22,11.5,11.5,23,0.00,CLR,,0.00,WeatherDisplay:10.37,2013-07-15 13:54:00,
2013-07-15 16:55:00,89.4,47.9,29.62,NNE,22,17.3,17.3,24,0.00,CLR,,0.00,WeatherDisplay:10.37,2013-07-15 13:55:00,
2013-07-15 16:59:00,89.2,47.7,29.62,NNE,22,16.1,16.1,24,0.00,CLR,,0.00,WeatherDisplay:10.37,2013-07-15 13:59:00,
2013-07-15 17:00:00,89.2,47.7,29.62,NNE,22,12.7,12.7,24,0.00,CLR,,0.00,WeatherDisplay:10.37,2013-07-15 14:00:00,
2013-07-15 17:01:00,89.2,47.7,29.62,NNE,22,12.7,12.7,24,0.00,CLR,,0.00,WeatherDisplay:10.37,2013-07-15 14:01:00,
2013-07-15 17:04:00,89.6,46.9,29.62,NNE,22,16.1,16.1,23,0.00,CLR,,0.00,WeatherDisplay:10.37,2013-07-15 14:04:00,
2013-07-15 17:06:00,89.6,46.9,29.62,NNE,22,13.8,13.8,23,0.00,CLR,,0.00,WeatherDisplay:10.37,2013-07-15 14:06:00,
2013-07-15 17:09:00,89.4,47.9,29.59,NNE,22,12.7,12.7,24,0.00,CLR,,0.00,WeatherDisplay:10.37,2013-07-15 14:09:00,
2013-07-15 17:11:00,89.2,47.7,29.59,NNE,22,12.7,12.7,24,0.00,CLR,,0.00,WeatherDisplay:10.37,2013-07-15 14:11:00,
2013-07-15 17:14:00,89.2,47.7,29.59,NNE,22,17.3,17.3,24,0.00,CLR,,0.00,WeatherDisplay:10.37,2013-07-15 14:14:00,
2013-07-15 17:15:00,89.1,47.6,29.59,NNE,22,17.3,17.3,24,0.00,CLR,,0.00,WeatherDisplay:10.37,2013-07-15 14:15:00,
2013-07-15 17:16:00,88.9,47.4,29.59,NNE,22,11.5,11.5,24,0.00,CLR,,0.00,WeatherDisplay:10.37,2013-07-15 14:16:00,
2013-07-15 17:19:00,89.1,47.6,29.59,NNE,22,13.8,13.8,24,0.00,CLR,,0.00,WeatherDisplay:10.37,2013-07-15 14:19:00,
2013-07-15 17:20:00,89.2,47.7,29.59,NNE,22,12.7,12.7,24,0.00,CLR,,0.00,WeatherDisplay:10.37,2013-07-15 14:20:00,
2013-07-15 17:21:00,89.2,47.7,29.59,East,90,8.1,8.1,24,0.00,CLR,,0.00,WeatherDisplay:10.37,2013-07-15 14:21:00,
2013-07-15 17:25:00,88.9,47.4,29.59,NNE,22,11.5,11.5,24,0.00,CLR,,0.00,WeatherDisplay:10.37,2013-07-15 14:25:00,
2013-07-15 17:27:00,89.1,47.6,29.59,NE,45,11.5,11.5,24,0.00,CLR,,0.00,WeatherDisplay:10.37,2013-07-15 14:27:00,
2013-07-15 17:30:00,89.1,47.6,29.59,NNW,338,15.0,15.0,24,0.00,CLR,,0.00,WeatherDisplay:10.37,2013-07-15 14:30:00,
2013-07-15 17:32:00,89.4,47.9,29.59,ENE,68,9.2,9.2,24,0.00,CLR,,0.00,WeatherDisplay:10.37,2013-07-15 14:32:00,
2013-07-15 17:35:00,88.9,47.4,29.59,NNE,22,17.8,17.8,24,0.00,CLR,,0.00,WeatherDisplay:10.37,2013-07-15 14:35:00,
2013-07-15 17:37:00,88.9,47.4,29.59,NNW,338,12.7,12.7,24,0.00,CLR,,0.00,WeatherDisplay:10.37,2013-07-15 14:37:00,
2013-07-15 17:38:00,89.1,47.6,29.59,NE,45,10.2,10.2,24,0.00,CLR,,0.00,WeatherDisplay:10.37,2013-07-15 14:38:00,
2013-07-15 17:40:00,88.9,47.4,29.59,NNE,22,19.6,19.6,24,0.00,CLR,,0.00,WeatherDisplay:10.37,2013-07-15 14:40:00,
2013-07-15 17:41:00,88.9,47.4,29.59,ENE,68,19.6,19.6,24,0.00,CLR,,0.00,WeatherDisplay:10.37,2013-07-15 14:41:00,
2013-07-15 17:42:00,88.7,47.3,29.59,ENE,68,13.8,13.8,24,0.00,CLR,,0.00,WeatherDisplay:10.37,2013-07-15 14:42:00,
2013-07-15 17:43:00,88.5,47.1,29.59,NE,45,15.4,15.4,24,0.00,CLR,,0.00,WeatherDisplay:10.37,2013-07-15 14:43:00,
2013-07-15 17:45:00,88.2,46.8,29.59,NNW,338,13.8,13.8,24,0.00,CLR,,0.00,WeatherDisplay:10.37,2013-07-15 14:45:00,
2013-07-15 17:46:00,88.2,46.8,29.59,NNW,338,13.8,13.8,24,0.00,CLR,,0.00,WeatherDisplay:10.37,2013-07-15 14:46:00,
2013-07-15 17:47:00,88.2,46.8,29.59,NE,45,12.7,12.7,24,0.00,CLR,,0.00,WeatherDisplay:10.37,2013-07-15 14:47:00,
2013-07-15 17:48:00,88.3,47.0,29.59,NNW,338,10.4,10.4,24,0.00,CLR,,0.00,WeatherDisplay:10.37,2013-07-15 14:48:00,
2013-07-15 17:51:00,88.2,46.8,29.59,NNE,22,13.0,13.0,24,0.00,CLR,,0.00,WeatherDisplay:10.37,2013-07-15 14:51:00,
2013-07-15 17:52:00,87.6,46.4,29.59,ENE,68,12.7,12.7,24,0.00,CLR,,0.00,WeatherDisplay:10.37,2013-07-15 14:52:00,
2013-07-15 17:56:00,87.6,46.4,29.59,NNE,22,16.1,16.1,24,0.00,CLR,,0.00,WeatherDisplay:10.37,2013-07-15 14:56:00,
2013-07-15 17:58:00,87.8,46.5,29.59,NE,45,11.8,11.8,24,0.00,CLR,,0.00,WeatherDisplay:10.37,2013-07-15 14:58:00,
2013-07-15 18:02:00,87.8,46.5,29.59,NNW,338,12.7,12.7,24,0.00,CLR,,0.00,WeatherDisplay:10.37,2013-07-15 15:02:00,
2013-07-15 18:03:00,87.8,46.5,29.59,NNE,22,10.5,10.5,24,0.00,CLR,,0.00,WeatherDisplay:10.37,2013-07-15 15:03:00,
2013-07-15 18:09:00,87.4,46.2,29.59,WNW,292,13.8,13.8,24,0.00,CLR,,0.00,WeatherDisplay:10.37,2013-07-15 15:09:00,
2013-07-15 18:14:00,87.3,46.1,29.59,North,0,15.4,15.4,24,0.00,CLR,,0.00,WeatherDisplay:10.37,2013-07-15 15:14:00,
2013-07-15 18:17:00,87.1,45.9,29.59,ENE,68,17.3,17.3,24,0.00,CLR,,0.00,WeatherDisplay:10.37,2013-07-15 15:17:00,
2013-07-15 18:19:00,87.1,45.9,29.59,ENE,68,13.8,13.8,24,0.00,CLR,,0.00,WeatherDisplay:10.37,2013-07-15 15:19:00,
2013-07-15 18:22:00,87.1,45.9,29.59,NE,45,15.0,15.0,24,0.00,CLR,,0.00,WeatherDisplay:10.37,2013-07-15 15:22:00,
2013-07-15 18:23:00,87.3,46.1,29.59,NE,45,15.0,15.0,24,0.00,CLR,,0.00,WeatherDisplay:10.37,2013-07-15 15:23:00,
2013-07-15 18:25:00,87.1,45.9,29.59,NNE,22,12.7,12.7,24,0.00,CLR,,0.00,WeatherDisplay:10.37,2013-07-15 15:25:00,
2013-07-15 18:27:00,87.1,45.9,29.59,NNE,22,15.0,15.0,24,0.00,CLR,,0.00,WeatherDisplay:10.37,2013-07-15 15:27:00,
2013-07-15 18:28:00,87.1,45.9,29.59,NE,45,13.0,13.0,24,0.00,CLR,,0.00,WeatherDisplay:10.37,2013-07-15 15:28:00,
2013-07-15 18:31:00,86.7,45.6,29.59,NNE,22,15.0,15.0,24,0.00,CLR,,0.00,WeatherDisplay:10.37,2013-07-15 15:31:00,
2013-07-15 18:33:00,87.1,45.9,29.59,ENE,68,12.5,12.5,24,0.00,CLR,,0.00,WeatherDisplay:10.37,2013-07-15 15:33:00,
2013-07-15 18:34:00,87.1,45.9,29.59,ENE,68,13.0,13.0,24,0.00,CLR,,0.00,WeatherDisplay:10.37,2013-07-15 15:34:00,
2013-07-15 18:36:00,87.1,45.9,29.59,NNE,22,12.7,12.7,24,0.00,CLR,,0.00,WeatherDisplay:10.37,2013-07-15 15:36:00,
2013-07-15 18:37:00,87.1,45.9,29.59,NE,45,17.3,17.3,24,0.00,CLR,,0.00,WeatherDisplay:10.37,2013-07-15 15:37:00,
2013-07-15 18:39:00,86.9,45.8,29.59,NE,45,16.8,16.8,24,0.00,CLR,,0.00,WeatherDisplay:10.37,2013-07-15 15:39:00,
2013-07-15 18:40:00,86.9,45.8,29.59,East,90,17.3,17.3,24,0.00,CLR,,0.00,WeatherDisplay:10.37,2013-07-15 15:40:00,
2013-07-15 18:41:00,87.1,45.9,29.59,NNE,22,17.3,17.3,24,0.00,CLR,,0.00,WeatherDisplay:10.37,2013-07-15 15:41:00,
2013-07-15 18:42:00,86.9,45.8,29.59,ENE,68,10.4,10.4,24,0.00,CLR,,0.00,WeatherDisplay:10.37,2013-07-15 15:42:00,
2013-07-15 18:45:00,86.9,45.8,29.59,NE,45,13.8,13.8,24,0.00,CLR,,0.00,WeatherDisplay:10.37,2013-07-15 15:45:00,
2013-07-15 18:46:00,86.9,45.8,29.59,ENE,68,13.8,13.8,24,0.00,CLR,,0.00,WeatherDisplay:10.37,2013-07-15 15:46:00,
2013-07-15 18:48:00,86.7,45.6,29.59,ENE,68,12.7,12.7,24,0.00,CLR,,0.00,WeatherDisplay:10.37,2013-07-15 15:48:00,
2013-07-15 18:49:00,86.7,45.6,29.59,NE,45,11.5,11.5,24,0.00,CLR,,0.00,WeatherDisplay:10.37,2013-07-15 15:49:00,
2013-07-15 18:52:00,86.7,45.6,29.59,ENE,68,10.4,10.4,24,0.00,CLR,,0.00,WeatherDisplay:10.37,2013-07-15 15:52:00,
2013-07-15 18:53:00,86.7,45.6,29.59,ENE,68,12.7,12.7,24,0.00,CLR,,0.00,WeatherDisplay:10.37,2013-07-15 15:53:00,
2013-07-15 18:54:00,86.5,45.5,29.59,ENE,68,13.8,13.8,24,0.00,CLR,,0.00,WeatherDisplay:10.37,2013-07-15 15:54:00,
2013-07-15 18:57:00,86.5,45.5,29.59,ENE,68,12.7,12.7,24,0.00,CLR,,0.00,WeatherDisplay:10.37,2013-07-15 15:57:00,
2013-07-15 18:59:00,86.4,45.3,29.59,NE,45,10.5,10.5,24,0.00,CLR,,0.00,WeatherDisplay:10.37,2013-07-15 15:59:00,
2013-07-15 19:05:00,86.5,45.5,29.59,NE,39,6.0,14.0,24,0.00,CLR,,0.00,WeatherDisplay:10.37,2013-07-15 16:05:00,
2013-07-15 19:06:00,86.2,45.2,29.59,NNE,22,10.5,10.5,24,0.00,CLR,,0.00,WeatherDisplay:10.37,2013-07-15 16:06:00,
2013-07-15 19:07:00,86.2,45.2,29.59,NE,45,11.5,11.5,24,0.00,CLR,,0.00,WeatherDisplay:10.37,2013-07-15 16:07:00,
2013-07-15 19:12:00,86.0,45.0,29.59,ENE,68,13.2,13.2,24,0.00,CLR,,0.00,WeatherDisplay:10.37,2013-07-15 16:12:00,
2013-07-15 19:13:00,86.0,45.0,29.59,NE,45,16.8,16.8,24,0.00,CLR,,0.00,WeatherDisplay:10.37,2013-07-15 16:13:00,
2013-07-15 19:15:00,85.8,44.8,29.59,NE,45,12.7,12.7,24,0.00,CLR,,0.00,WeatherDisplay:10.37,2013-07-15 16:15:00,
2013-07-15 19:17:00,85.8,44.8,29.59,NE,45,10.4,10.4,24,0.00,CLR,,0.00,WeatherDisplay:10.37,2013-07-15 16:17:00,
2013-07-15 19:18:00,85.8,44.8,29.59,North,0,10.7,10.7,24,0.00,CLR,,0.00,WeatherDisplay:10.37,2013-07-15 16:18:00,
2013-07-15 19:19:00,85.6,44.7,29.59,ENE,68,15.0,15.0,24,0.00,CLR,,0.00,WeatherDisplay:10.37,2013-07-15 16:19:00,
2013-07-15 19:20:00,85.6,44.7,29.59,NNE,22,13.8,13.8,24,0.00,CLR,,0.00,WeatherDisplay:10.37,2013-07-15 16:20:00,
2013-07-15 19:22:00,85.6,44.7,29.59,NNW,338,12.7,12.7,24,0.00,CLR,,0.00,WeatherDisplay:10.37,2013-07-15 16:22:00,
2013-07-15 19:24:00,85.6,44.7,29.59,NNW,338,12.7,12.7,24,0.00,CLR,,0.00,WeatherDisplay:10.37,2013-07-15 16:24:00,
2013-07-15 19:25:00,85.5,44.5,29.59,NNE,22,9.2,9.2,24,0.00,CLR,,0.00,WeatherDisplay:10.37,2013-07-15 16:25:00,
2013-07-15 19:29:00,85.3,44.4,29.59,NNE,22,12.7,12.7,24,0.00,CLR,,0.00,WeatherDisplay:10.37,2013-07-15 16:29:00,
2013-07-15 19:30:00,85.3,44.4,29.59,NE,45,9.2,9.2,24,0.00,CLR,,0.00,WeatherDisplay:10.37,2013-07-15 16:30:00,
2013-07-15 19:34:00,85.1,44.2,29.59,ENE,68,6.9,7.4,24,0.00,CLR,,0.00,WeatherDisplay:10.37,2013-07-15 16:34:00,
2013-07-15 19:35:00,85.1,44.2,29.59,NNE,22,8.5,8.5,24,0.00,CLR,,0.00,WeatherDisplay:10.37,2013-07-15 16:35:00,
2013-07-15 19:36:00,85.1,44.2,29.59,ENE,68,8.1,8.1,24,0.00,CLR,,0.00,WeatherDisplay:10.37,2013-07-15 16:36:00,
2013-07-15 19:40:00,85.1,44.2,29.62,NE,45,13.8,13.8,24,0.00,CLR,,0.00,WeatherDisplay:10.37,2013-07-15 16:40:00,
2013-07-15 19:41:00,84.9,44.1,29.62,NNW,338,13.8,13.8,24,0.00,CLR,,0.00,WeatherDisplay:10.37,2013-07-15 16:41:00,
2013-07-15 19:43:00,84.6,43.8,29.62,NNE,22,15.0,15.0,24,0.00,CLR,,0.00,WeatherDisplay:10.37,2013-07-15 16:43:00,
2013-07-15 19:46:00,84.0,44.4,29.62,NNE,22,13.8,13.8,25,0.00,CLR,,0.00,WeatherDisplay:10.37,2013-07-15 16:46:00,
2013-07-15 19:48:00,84.0,44.4,29.62,ENE,68,11.5,11.5,25,0.00,CLR,,0.00,WeatherDisplay:10.37,2013-07-15 16:48:00,
2013-07-15 19:49:00,84.0,44.4,29.62,ENE,68,11.8,11.8,25,0.00,CLR,,0.00,WeatherDisplay:10.37,2013-07-15 16:49:00,
2013-07-15 19:52:00,84.2,43.5,29.62,NNE,22,8.1,8.1,24,0.00,CLR,,0.00,WeatherDisplay:10.37,2013-07-15 16:52:00,
2013-07-15 19:54:00,84.2,43.5,29.62,NNE,22,10.4,10.4,24,0.00,CLR,,0.00,WeatherDisplay:10.37,2013-07-15 16:54:00,
2013-07-15 19:57:00,83.8,44.3,29.62,North,0,11.5,11.5,25,0.00,CLR,,0.00,WeatherDisplay:10.37,2013-07-15 16:57:00,
2013-07-15 19:58:00,83.8,44.3,29.62,North,0,12.7,12.7,25,0.00,CLR,,0.00,WeatherDisplay:10.37,2013-07-15 16:58:00,
2013-07-15 20:00:00,84.0,44.4,29.62,NNE,31,3.0,13.0,25,0.00,CLR,,0.00,WeatherDisplay:10.37,2013-07-15 17:00:00,
2013-07-15 20:05:00,83.7,44.1,29.62,NNE,22,11.5,11.5,25,0.00,CLR,,0.00,WeatherDisplay:10.37,2013-07-15 17:05:00,
2013-07-15 20:10:00,83.5,43.9,29.62,NNE,22,6.9,6.9,25,0.00,CLR,,0.00,WeatherDisplay:10.37,2013-07-15 17:10:00,
2013-07-15 20:11:00,83.3,43.8,29.62,NNE,22,8.1,8.1,25,0.00,CLR,,0.00,WeatherDisplay:10.37,2013-07-15 17:11:00,
2013-07-15 20:15:00,82.9,43.5,29.62,NNW,338,12.7,12.7,25,0.00,CLR,,0.00,WeatherDisplay:10.37,2013-07-15 17:15:00,
2013-07-15 20:16:00,82.8,43.3,29.62,NE,45,11.5,11.5,25,0.00,CLR,,0.00,WeatherDisplay:10.37,2013-07-15 17:16:00,
2013-07-15 20:18:00,82.8,43.3,29.62,North,0,6.0,6.0,25,0.00,CLR,,0.00,WeatherDisplay:10.37,2013-07-15 17:18:00,
2013-07-15 20:21:00,82.6,43.2,29.62,NNW,338,8.1,8.1,25,0.00,CLR,,0.00,WeatherDisplay:10.37,2013-07-15 17:21:00,
2013-07-15 20:23:00,82.6,43.2,29.62,NNE,22,8.1,8.1,25,0.00,CLR,,0.00,WeatherDisplay:10.37,2013-07-15 17:23:00,
2013-07-15 20:26:00,82.4,43.0,29.62,NNE,22,9.2,9.2,25,0.00,CLR,,0.00,WeatherDisplay:10.37,2013-07-15 17:26:00,
2013-07-15 20:28:00,82.2,42.9,29.62,North,0,8.1,8.1,25,0.00,CLR,,0.00,WeatherDisplay:10.37,2013-07-15 17:28:00,
2013-07-15 20:31:00,82.2,42.9,29.62,NNE,22,9.0,9.0,25,0.00,CLR,,0.00,WeatherDisplay:10.37,2013-07-15 17:31:00,
2013-07-15 20:32:00,82.0,42.7,29.62,NNE,22,10.5,10.5,25,0.00,CLR,,0.00,WeatherDisplay:10.37,2013-07-15 17:32:00,
2013-07-15 20:34:00,82.0,42.7,29.62,NNE,22,9.2,9.2,25,0.00,CLR,,0.00,WeatherDisplay:10.37,2013-07-15 17:34:00,
2013-07-15 20:37:00,81.9,45.6,29.62,NE,45,8.1,8.1,28,0.00,CLR,,0.00,WeatherDisplay:10.37,2013-07-15 17:37:00,
2013-07-15 20:39:00,81.7,45.4,29.62,NNE,22,8.1,8.1,28,0.00,CLR,,0.00,WeatherDisplay:10.37,2013-07-15 17:39:00,
2013-07-15 20:42:00,81.7,45.4,29.62,NNE,22,5.8,5.8,28,0.00,CLR,,0.00,WeatherDisplay:10.37,2013-07-15 17:42:00,
2013-07-15 20:45:00,81.5,45.2,29.62,North,0,3.5,3.5,28,0.00,CLR,,0.00,WeatherDisplay:10.37,2013-07-15 17:45:00,
2013-07-15 20:47:00,81.5,45.2,29.62,NNE,22,6.9,6.9,28,0.00,CLR,,0.00,WeatherDisplay:10.37,2013-07-15 17:47:00,
2013-07-15 20:53:00,81.0,44.8,29.62,North,0,8.1,8.1,28,0.00,CLR,,0.00,WeatherDisplay:10.37,2013-07-15 17:53:00,
2013-07-15 20:58:00,80.8,44.6,29.62,NE,45,12.7,12.7,28,0.00,CLR,,0.00,WeatherDisplay:10.37,2013-07-15 17:58:00,
2013-07-15 20:59:00,80.8,44.6,29.62,ENE,68,13.8,13.8,28,0.00,CLR,,0.00,WeatherDisplay:10.37,2013-07-15 17:59:00,
2013-07-15 21:00:00,80.6,44.5,29.62,NNE,22,11.5,11.5,28,0.00,CLR,,0.00,WeatherDisplay:10.37,2013-07-15 18:00:00,
2013-07-15 21:03:00,80.6,44.5,29.62,NNE,22,8.1,8.1,28,0.00,CLR,,0.00,WeatherDisplay:10.37,2013-07-15 18:03:00,
2013-07-15 21:04:00,80.6,44.5,29.62,ENE,68,9.2,9.2,28,0.00,CLR,,0.00,WeatherDisplay:10.37,2013-07-15 18:04:00,
2013-07-15 21:06:00,80.6,44.5,29.62,ENE,68,8.1,8.1,28,0.00,CLR,,0.00,WeatherDisplay:10.37,2013-07-15 18:06:00,
2013-07-15 21:09:00,80.6,44.5,29.62,North,0,6.9,6.9,28,0.00,CLR,,0.00,WeatherDisplay:10.37,2013-07-15 18:09:00,
2013-07-15 21:12:00,80.4,44.3,29.62,NNE,22,9.2,9.2,28,0.00,CLR,,0.00,WeatherDisplay:10.37,2013-07-15 18:12:00,
2013-07-15 21:13:00,80.4,44.3,29.62,NNE,22,8.1,8.1,28,0.00,CLR,,0.00,WeatherDisplay:10.37,2013-07-15 18:13:00,
2013-07-15 21:14:00,80.4,44.3,29.62,NNE,22,11.4,11.4,28,0.00,CLR,,0.00,WeatherDisplay:10.37,2013-07-15 18:14:00,
2013-07-15 21:18:00,80.2,44.2,29.62,NNE,22,8.1,8.1,28,0.00,CLR,,0.00,WeatherDisplay:10.37,2013-07-15 18:18:00,
2013-07-15 21:20:00,80.2,44.2,29.62,NE,45,8.1,8.1,28,0.00,CLR,,0.00,WeatherDisplay:10.37,2013-07-15 18:20:00,
2013-07-15 21:23:00,80.1,44.0,29.62,NE,45,5.8,5.8,28,0.00,CLR,,0.00,WeatherDisplay:10.37,2013-07-15 18:23:00,
2013-07-15 21:25:00,80.1,44.0,29.62,North,0,8.1,8.1,28,0.00,CLR,,0.00,WeatherDisplay:10.37,2013-07-15 18:25:00,
2013-07-15 21:28:00,79.9,43.9,29.62,NNE,22,6.9,6.9,28,0.00,CLR,,0.00,WeatherDisplay:10.37,2013-07-15 18:28:00,
2013-07-15 21:32:00,79.9,43.9,29.62,NNW,338,9.2,9.2,28,0.00,CLR,,0.00,WeatherDisplay:10.37,2013-07-15 18:32:00,
2013-07-15 21:33:00,79.9,43.9,29.62,NNE,22,9.2,9.2,28,0.00,CLR,,0.00,WeatherDisplay:10.37,2013-07-15 18:33:00,
2013-07-15 21:34:00,79.9,43.9,29.62,ESE,112,5.6,5.6,28,0.00,CLR,,0.00,WeatherDisplay:10.37,2013-07-15 18:34:00,
2013-07-15 21:37:00,79.9,43.9,29.62,NNE,22,8.1,8.1,28,0.00,CLR,,0.00,WeatherDisplay:10.37,2013-07-15 18:37:00,
2013-07-15 21:38:00,79.9,43.9,29.62,ENE,68,5.8,6.0,28,0.00,CLR,,0.00,WeatherDisplay:10.37,2013-07-15 18:38:00,
2013-07-15 21:39:00,79.9,43.9,29.62,ENE,68,6.9,6.9,28,0.00,CLR,,0.00,WeatherDisplay:10.37,2013-07-15 18:39:00,
2013-07-15 21:42:00,79.7,43.7,29.62,NNE,22,5.9,5.9,28,0.00,CLR,,0.00,WeatherDisplay:10.37,2013-07-15 18:42:00,
2013-07-15 21:44:00,79.7,43.7,29.62,NNE,22,8.1,8.1,28,0.00,CLR,,0.00,WeatherDisplay:10.37,2013-07-15 18:44:00,
2013-07-15 21:48:00,79.9,43.9,29.62,ENE,68,5.8,5.8,28,0.00,CLR,,0.00,WeatherDisplay:10.37,2013-07-15 18:48:00,
2013-07-15 21:50:00,79.9,43.9,29.62,NE,38,2.0,6.0,28,0.00,CLR,,0.00,WeatherDisplay:10.37,2013-07-15 18:50:00,
2013-07-15 21:53:00,79.9,43.9,29.62,NE,45,0.0,0.0,28,0.00,CLR,,0.00,WeatherDisplay:10.37,2013-07-15 18:53:00,
2013-07-15 21:55:00,79.9,43.9,29.62,ENE,68,0.0,0.0,28,0.00,CLR,,0.00,WeatherDisplay:10.37,2013-07-15 18:55:00,
2013-07-15 21:56:00,79.9,43.9,29.62,ENE,68,0.0,0.0,28,0.00,CLR,,0.00,WeatherDisplay:10.37,2013-07-15 18:56:00,
2013-07-15 21:57:00,79.9,43.9,29.62,ENE,68,1.2,0.0,28,0.00,CLR,,0.00,WeatherDisplay:10.37,2013-07-15 18:57:00,
2013-07-15 21:58:00,79.9,43.9,29.62,NE,45,0.0,0.0,28,0.00,CLR,,0.00,WeatherDisplay:10.37,2013-07-15 18:58:00,
2013-07-15 22:01:00,80.1,44.0,29.62,NNE,22,4.3,4.3,28,0.00,CLR,,0.00,WeatherDisplay:10.37,2013-07-15 19:01:00,
2013-07-15 22:03:00,80.2,44.2,29.62,NNE,22,3.5,3.5,28,0.00,CLR,,0.00,WeatherDisplay:10.37,2013-07-15 19:03:00,
2013-07-15 22:04:00,80.2,44.2,29.62,NNE,22,2.3,0.0,28,0.00,CLR,,0.00,WeatherDisplay:10.37,2013-07-15 19:04:00,
2013-07-15 22:06:00,80.2,44.2,29.62,NNE,22,3.5,3.5,28,0.00,CLR,,0.00,WeatherDisplay:10.37,2013-07-15 19:06:00,
2013-07-15 22:07:00,80.2,44.2,29.62,NNE,22,1.6,1.6,28,0.00,CLR,,0.00,WeatherDisplay:10.37,2013-07-15 19:07:00,
2013-07-15 22:09:00,80.2,44.2,29.65,NE,45,2.3,2.3,28,0.00,CLR,,0.00,WeatherDisplay:10.37,2013-07-15 19:09:00,
2013-07-15 22:10:00,80.2,44.2,29.65,NNE,31,1.0,4.0,28,0.00,CLR,,0.00,WeatherDisplay:10.37,2013-07-15 19:10:00,
2013-07-15 22:11:00,80.2,44.2,29.65,NE,45,0.0,0.0,28,0.00,CLR,,0.00,WeatherDisplay:10.37,2013-07-15 19:11:00,
2013-07-15 22:12:00,80.2,44.2,29.65,NE,45,0.0,0.0,28,0.00,CLR,,0.00,WeatherDisplay:10.37,2013-07-15 19:12:00,
2013-07-15 22:14:00,80.2,44.2,29.65,NNE,22,0.0,0.0,28,0.00,CLR,,0.00,WeatherDisplay:10.37,2013-07-15 19:14:00,
2013-07-15 22:15:00,80.2,44.2,29.65,NE,34,0.0,0.0,28,0.00,CLR,,0.00,WeatherDisplay:10.37,2013-07-15 19:15:00,
2013-07-15 22:17:00,80.2,44.2,29.65,NW,315,0.0,0.0,28,0.00,CLR,,0.00,WeatherDisplay:10.37,2013-07-15 19:17:00,
2013-07-15 22:18:00,80.2,44.2,29.65,WNW,292,1.2,0.0,28,0.00,CLR,,0.00,WeatherDisplay:10.37,2013-07-15 19:18:00,
2013-07-15 22:20:00,80.4,44.3,29.65,NNW,338,0.0,0.0,28,0.00,CLR,,0.00,WeatherDisplay:10.37,2013-07-15 19:20:00,
2013-07-15 22:23:00,80.4,44.3,29.65,NNW,338,0.0,0.0,28,0.00,CLR,,0.00,WeatherDisplay:10.37,2013-07-15 19:23:00,
2013-07-15 22:25:00,80.4,44.3,29.65,NNW,338,3.5,3.5,28,0.00,CLR,,0.00,WeatherDisplay:10.37,2013-07-15 19:25:00,
2013-07-15 22:28:00,80.6,44.5,29.65,NNE,22,3.5,3.5,28,0.00,CLR,,0.00,WeatherDisplay:10.37,2013-07-15 19:28:00,
2013-07-15 22:30:00,80.8,44.6,29.65,NNW,338,2.6,2.6,28,0.00,CLR,,0.00,WeatherDisplay:10.37,2013-07-15 19:30:00,
2013-07-15 22:31:00,80.8,44.6,29.65,NNW,338,2.3,2.3,28,0.00,CLR,,0.00,WeatherDisplay:10.37,2013-07-15 19:31:00,
2013-07-15 22:34:00,80.8,44.6,29.65,NNW,338,1.2,0.0,28,0.00,CLR,,0.00,WeatherDisplay:10.37,2013-07-15 19:34:00,
2013-07-15 22:35:00,80.8,44.6,29.65,NNW,338,0.0,0.0,28,0.00,CLR,,0.00,WeatherDisplay:10.37,2013-07-15 19:35:00,
2013-07-15 22:36:00,80.8,44.6,29.65,NNW,338,0.0,0.0,28,0.00,CLR,,0.00,WeatherDisplay:10.37,2013-07-15 19:36:00,
2013-07-15 22:37:00,80.6,44.5,29.65,NNW,338,0.0,0.0,28,0.00,CLR,,0.00,WeatherDisplay:10.37,2013-07-15 19:37:00,
2013-07-15 22:39:00,80.6,44.5,29.65,NNW,338,0.0,0.0,28,0.00,CLR,,0.00,WeatherDisplay:10.37,2013-07-15 19:39:00,
2013-07-15 22:41:00,80.4,44.3,29.65,NNE,22,0.0,0.0,28,0.00,CLR,,0.00,WeatherDisplay:10.37,2013-07-15 19:41:00,
2013-07-15 22:42:00,80.4,44.3,29.65,ENE,68,0.0,0.0,28,0.00,CLR,,0.00,WeatherDisplay:10.37,2013-07-15 19:42:00,
2013-07-15 22:46:00,80.2,44.2,29.65,ENE,68,0.0,0.0,28,0.00,CLR,,0.00,WeatherDisplay:10.37,2013-07-15 19:46:00,
2013-07-15 22:47:00,80.2,44.2,29.65,ENE,68,0.0,0.0,28,0.00,CLR,,0.00,WeatherDisplay:10.37,2013-07-15 19:47:00,
2013-07-15 22:52:00,80.1,44.0,29.65,ENE,68,1.2,0.0,28,0.00,CLR,,0.00,WeatherDisplay:10.37,2013-07-15 19:52:00,
2013-07-15 22:54:00,80.1,44.0,29.65,ENE,68,0.0,0.0,28,0.00,CLR,,0.00,WeatherDisplay:10.37,2013-07-15 19:54:00,
2013-07-15 22:57:00,80.1,44.0,29.65,ENE,68,0.0,0.0,28,0.00,CLR,,0.00,WeatherDisplay:10.37,2013-07-15 19:57:00,
2013-07-15 22:59:00,79.9,43.9,29.65,ENE,68,0.0,0.0,28,0.00,CLR,,0.00,WeatherDisplay:10.37,2013-07-15 19:59:00,
2013-07-15 23:02:00,79.9,43.9,29.65,ENE,68,2.3,0.0,28,0.00,CLR,,0.00,WeatherDisplay:10.37,2013-07-15 20:02:00,
2013-07-15 23:03:00,79.9,43.9,29.65,ENE,68,0.0,0.0,28,0.00,CLR,,0.00,WeatherDisplay:10.37,2013-07-15 20:03:00,
2013-07-15 23:07:00,79.7,43.7,29.65,ENE,68,1.4,0.0,28,0.00,CLR,,0.00,WeatherDisplay:10.37,2013-07-15 20:07:00,
2013-07-15 23:08:00,79.7,43.7,29.65,ENE,68,0.0,0.0,28,0.00,CLR,,0.00,WeatherDisplay:10.37,2013-07-15 20:08:00,
2013-07-15 23:12:00,79.7,43.7,29.65,ESE,112,0.0,0.0,28,0.00,CLR,,0.00,WeatherDisplay:10.37,2013-07-15 20:12:00,
2013-07-15 23:13:00,79.7,43.7,29.65,ESE,112,0.0,0.0,28,0.00,CLR,,0.00,WeatherDisplay:10.37,2013-07-15 20:13:00,
2013-07-15 23:18:00,79.5,43.5,29.65,East,90,0.0,0.0,28,0.00,CLR,,0.00,WeatherDisplay:10.37,2013-07-15 20:18:00,
2013-07-15 23:19:00,79.3,43.4,29.65,ENE,68,2.0,2.0,28,0.00,CLR,,0.00,WeatherDisplay:10.37,2013-07-15 20:19:00,
2013-07-15 23:20:00,79.3,43.4,29.65,ENE,68,2.3,2.3,28,0.00,CLR,,0.00,WeatherDisplay:10.37,2013-07-15 20:20:00,
2013-07-15 23:23:00,79.3,43.4,29.65,ENE,68,0.0,0.0,28,0.00,CLR,,0.00,WeatherDisplay:10.37,2013-07-15 20:23:00,
2013-07-15 23:26:00,79.3,43.4,29.65,ENE,68,0.0,0.0,28,0.00,CLR,,0.00,WeatherDisplay:10.37,2013-07-15 20:26:00,
2013-07-15 23:28:00,79.2,43.2,29.65,ENE,68,0.0,0.0,28,0.00,CLR,,0.00,WeatherDisplay:10.37,2013-07-15 20:28:00,
2013-07-15 23:31:00,79.3,43.4,29.65,ENE,68,0.0,0.0,28,0.00,CLR,,0.00,WeatherDisplay:10.37,2013-07-15 20:31:00,
2013-07-15 23:33:00,79.2,43.2,29.65,East,90,0.0,0.0,28,0.00,CLR,,0.00,WeatherDisplay:10.37,2013-07-15 20:33:00,
2013-07-15 23:37:00,79.2,43.2,29.65,ESE,112,0.0,0.0,28,0.00,CLR,,0.00,WeatherDisplay:10.37,2013-07-15 20:37:00,
2013-07-15 23:39:00,79.2,43.2,29.65,ENE,68,0.0,0.0,28,0.00,CLR,,0.00,WeatherDisplay:10.37,2013-07-15 20:39:00,
2013-07-15 23:41:00,79.0,43.1,29.65,ENE,68,0.0,0.0,28,0.00,CLR,,0.00,WeatherDisplay:10.37,2013-07-15 20:41:00,
2013-07-15 23:42:00,79.0,43.1,29.65,ENE,68,0.0,0.0,28,0.00,CLR,,0.00,WeatherDisplay:10.37,2013-07-15 20:42:00,
2013-07-15 23:43:00,79.0,43.1,29.65,ENE,68,0.0,0.0,28,0.00,CLR,,0.00,WeatherDisplay:10.37,2013-07-15 20:43:00,
2013-07-15 23:46:00,78.8,42.9,29.65,ENE,68,0.0,0.0,28,0.00,CLR,,0.00,WeatherDisplay:10.37,2013-07-15 20:46:00,
2013-07-15 23:49:00,78.8,42.9,29.65,ENE,68,0.0,0.0,28,0.00,CLR,,0.00,WeatherDisplay:10.37,2013-07-15 20:49:00,
2013-07-15 23:50:00,78.8,42.9,29.65,ENE,68,0.0,0.0,28,0.00,CLR,,0.00,WeatherDisplay:10.37,2013-07-15 20:50:00,
2013-07-15 23:51:00,78.8,42.9,29.65,ENE,68,0.0,0.0,28,0.00,CLR,,0.00,WeatherDisplay:10.37,2013-07-15 20:51:00,
2013-07-15 23:52:00,78.6,43.7,29.65,ENE,68,0.0,0.0,29,0.00,CLR,,0.00,WeatherDisplay:10.37,2013-07-15 20:52:00,
2013-07-15 23:54:00,78.4,43.5,29.65,ENE,68,0.0,0.0,29,0.00,CLR,,0.00,WeatherDisplay:10.37,2013-07-15 20:54:00,
2013-07-15 23:57:00,78.3,43.4,29.65,ENE,68,0.0,0.0,29,0.00,CLR,,0.00,WeatherDisplay:10.37,2013-07-15 20:57:00,
2013-07-15 23:58:00,78.3,43.4,29.65,ENE,68,0.0,0.0,29,0.00,CLR,,0.00,WeatherDisplay:10.37,2013-07-15 20:58:00,